BA290 / G-BNLY 7700 Squawk Report (18th of June, 2018)

Aircraft B744 Reg No. G-BNLY Age 25 years old
Model 747 Jet engines 4 First flight 25-01-93
Registered 10-02-93 Rollout N/A Delivered 10-02-93
Construction No. 27090 Line No. 0959 Series 436
ADSHEX 4004C7 Airline name British Airways Owner N/A
Airfield based Heathrow~Gtr London~G First tracked 2011-04-01 21:07:02
Time Lat Lon Altitude Heading Speed Vertical Rate
2018-06-18 09:50:55 GMT 51.467491 -0.458586 0 87 10 0
2018-06-18 09:50:35 GMT 51.467491 -0.460572 0 90 16 0
2018-06-18 09:50:30 GMT 51.467480 -0.461121 0 90 15 0
2018-06-18 09:50:20 GMT 51.467480 -0.462303 0 90 18 0
2018-06-18 09:50:10 GMT 51.467480 -0.463619 0 90 17 0
2018-06-18 09:49:59 GMT 51.467480 -0.464896 0 90 15 0
2018-06-18 09:49:49 GMT 51.467491 -0.465843 0 90 12 0
2018-06-18 09:49:39 GMT 51.467491 -0.466659 0 90 11 0
2018-06-18 09:49:29 GMT 51.467491 -0.467383 0 90 10 0
2018-06-18 09:49:19 GMT 51.467480 -0.468014 0 78 8 0
2018-06-18 09:49:09 GMT 51.467377 -0.468533 0 16 9 0
2018-06-18 09:48:56 GMT 51.466770 -0.468616 0 0 13 0
2018-06-18 09:48:47 GMT 51.466312 -0.468626 0 354 12 0
2018-06-18 09:48:36 GMT 51.465767 -0.468369 0 306 12 0
2018-06-18 09:48:22 GMT 51.465290 -0.466824 0 292 26 0
2018-06-18 09:48:16 GMT 51.465034 -0.465622 0 284 31 0
2018-06-18 09:48:06 GMT 51.464859 -0.463356 0 270 38 0
2018-06-18 09:47:54 GMT 51.464870 -0.459309 0 270 49 0
2018-06-18 09:47:33 GMT 51.464905 -0.447415 0 270 115 0
2018-06-18 09:47:20 GMT 51.464943 -0.434799 0 270 137 128
2018-06-18 09:47:15 GMT 51.464951 -0.429655 25 270 138 -768
2018-06-18 09:47:05 GMT 51.465042 -0.419410 150 270 134 -768
2018-06-18 09:46:58 GMT 51.465034 -0.412445 225 270 135 -704
2018-06-18 09:46:53 GMT 51.465042 -0.407311 300 270 135 -896
2018-06-18 09:46:50 GMT 51.465042 -0.403376 350 270 135 -704
2018-06-18 09:46:47 GMT 51.465042 -0.401372 525 270 134 -640
2018-06-18 09:46:43 GMT 51.465042 -0.397364 425 270 134 -576
2018-06-18 09:46:38 GMT 51.465080 -0.392380 550 270 132 -768
2018-06-18 09:46:35 GMT 51.465088 -0.389421 525 270 134 -640
2018-06-18 09:46:32 GMT 51.465130 -0.386505 550 270 134 -896
2018-06-18 09:46:25 GMT 51.465130 -0.378494 625 270 135 -704
2018-06-18 09:46:22 GMT 51.465130 -0.376511 675 270 133 -832
2018-06-18 09:46:18 GMT 51.465130 -0.372620 750 270 132 -768
2018-06-18 09:46:15 GMT 51.465134 -0.369675 750 270 132 -768
2018-06-18 09:46:12 GMT 51.465130 -0.366745 800 270 133 -832
2018-06-18 09:46:09 GMT 51.465134 -0.363737 850 270 135 -512
2018-06-18 09:46:04 GMT 51.465179 -0.357724 875 270 135 -768
2018-06-18 09:46:01 GMT 51.465176 -0.354767 925 270 135 -960
2018-06-18 09:45:58 GMT 51.465176 -0.352707 1,050 270 135 -512
2018-06-18 09:45:54 GMT 51.465176 -0.348740 1,000 270 134 -1024
2018-06-18 09:45:51 GMT 51.465179 -0.345698 1,050 270 135 -640
2018-06-18 09:45:48 GMT 51.465221 -0.342636 1,150 270 143 -768
2018-06-18 09:45:45 GMT 51.465225 -0.339611 1,100 270 135 -768
2018-06-18 09:45:41 GMT 51.465225 -0.335677 1,150 270 135 -832
2018-06-18 09:45:38 GMT 51.465221 -0.332718 1,325 270 143 -768
2018-06-18 09:45:33 GMT 51.465225 -0.327511 1,250 270 140 -640
2018-06-18 09:45:30 GMT 51.465267 -0.324402 1,300 270 140 -640
2018-06-18 09:45:27 GMT 51.465271 -0.321276 1,325 270 143 -768
2018-06-18 09:45:20 GMT 51.465267 -0.311737 1,450 270 142 -768
2018-06-18 09:45:16 GMT 51.465267 -0.309601 1,475 270 142 -768
2018-06-18 09:45:13 GMT 51.465271 -0.306429 1,525 270 143 -576
2018-06-18 09:45:09 GMT 51.465271 -0.302198 1,550 270 146 -832
2018-06-18 09:45:06 GMT 51.465267 -0.298996 1,600 270 146 -832
2018-06-18 09:45:03 GMT 51.465317 -0.295740 1,675 270 145 -832
2018-06-18 09:45:00 GMT 51.465313 -0.292511 1,725 270 145 -640
2018-06-18 09:44:57 GMT 51.465317 -0.289282 1,725 270 152 -896
2018-06-18 09:44:53 GMT 51.465317 -0.284976 1,775 270 148 -832
2018-06-18 09:44:50 GMT 51.465313 -0.281601 1,800 270 149 -896
2018-06-18 09:44:46 GMT 51.465313 -0.277176 1,925 270 152 -896
2018-06-18 09:44:43 GMT 51.465317 -0.273842 1,900 270 151 -1088
2018-06-18 09:44:39 GMT 51.465363 -0.269314 1,950 270 152 -896
2018-06-18 09:44:36 GMT 51.465363 -0.264934 1,975 270 150 -1216
2018-06-18 09:44:33 GMT 51.465363 -0.261536 2,050 270 151 -960
2018-06-18 09:44:28 GMT 51.465363 -0.258104 2,350 270 161 -640
2018-06-18 09:44:25 GMT 51.465408 -0.253576 2,175 270 155 -960
2018-06-18 09:44:22 GMT 51.465363 -0.250168 2,250 270 155 -960
2018-06-18 09:44:19 GMT 51.465363 -0.246747 2,300 270 157 -576
2018-06-18 09:44:16 GMT 51.465408 -0.243225 2,275 270 157 -640
2018-06-18 09:44:12 GMT 51.465408 -0.238571 2,325 270 162 -1088
2018-06-18 09:44:09 GMT 51.465408 -0.234944 2,350 270 163 -1024
2018-06-18 09:44:06 GMT 51.465408 -0.231323 2,425 270 164 -640
2018-06-18 09:44:03 GMT 51.465408 -0.226440 2,475 270 167 -1152
2018-06-18 09:43:59 GMT 51.465408 -0.221405 2,525 270 169 -896
2018-06-18 09:43:55 GMT 51.465408 -0.217574 2,575 270 171 -896
2018-06-18 09:43:52 GMT 51.465454 -0.213776 2,675 270 173 -1216
2018-06-18 09:43:49 GMT 51.465454 -0.209928 2,700 270 173 -1216
2018-06-18 09:43:46 GMT 51.465454 -0.206223 2,750 270 172 -1088
2018-06-18 09:43:43 GMT 51.465454 -0.202282 2,850 270 172 -832
2018-06-18 09:43:40 GMT 51.465454 -0.198441 2,875 270 172 -832
2018-06-18 09:43:37 GMT 51.465454 -0.194636 2,900 270 172 -768
2018-06-18 09:43:34 GMT 51.465454 -0.190811 2,925 270 173 -768
2018-06-18 09:43:30 GMT 51.465454 -0.184392 3,000 270 174 -1024
2018-06-18 09:43:27 GMT 51.465454 -0.181868 3,050 270 174 -896
2018-06-18 09:43:24 GMT 51.465408 -0.177917 3,100 270 173 -1088
2018-06-18 09:43:21 GMT 51.465454 -0.172882 3,175 270 171 -704
2018-06-18 09:43:18 GMT 51.465454 -0.170212 3,200 270 171 -832
2018-06-18 09:43:15 GMT 51.465454 -0.166502 3,225 270 171 -832
2018-06-18 09:43:12 GMT 51.465500 -0.162659 3,475 271 164 -704
2018-06-18 09:43:09 GMT 51.465500 -0.158856 3,300 270 170 -768
2018-06-18 09:43:06 GMT 51.465500 -0.155029 3,550 270 170 -1344
2018-06-18 09:43:03 GMT 51.465500 -0.151210 3,450 270 169 -960
2018-06-18 09:43:00 GMT 51.465500 -0.147552 3,450 270 169 -1088
2018-06-18 09:42:57 GMT 51.465500 -0.142593 3,550 271 164 -704
2018-06-18 09:42:54 GMT 51.465500 -0.140076 3,550 271 164 -704
2018-06-18 09:42:50 GMT 51.465454 -0.133989 3,625 270 163 -1152
2018-06-18 09:42:47 GMT 51.465454 -0.131613 3,650 270 163 -1088
2018-06-18 09:42:43 GMT 51.465454 -0.126862 3,725 270 163 -1024
2018-06-18 09:42:39 GMT 51.465454 -0.121963 3,825 270 164 -896
2018-06-18 09:42:36 GMT 51.465500 -0.117138 3,825 269 163 -256
2018-06-18 09:42:33 GMT 51.465546 -0.114688 3,850 269 162 192
2018-06-18 09:42:30 GMT 51.465591 -0.109863 3,825 269 162 64
2018-06-18 09:42:27 GMT 51.465637 -0.107488 3,850 273 163 -64
2018-06-18 09:42:24 GMT 51.465641 -0.103836 3,850 272 163 -128
2018-06-18 09:42:21 GMT 51.465546 -0.097763 3,850 273 162 0
2018-06-18 09:42:18 GMT 51.465500 -0.095388 3,850 274 162 64
2018-06-18 09:42:15 GMT 51.465408 -0.093013 3,850 274 162 -128
2018-06-18 09:42:12 GMT 51.465267 -0.089340 3,850 273 162 64
2018-06-18 09:42:08 GMT 51.465130 -0.084534 3,850 270 162 128
2018-06-18 09:42:04 GMT 51.465221 -0.077286 3,850 268 162 -128
2018-06-18 09:42:01 GMT 51.465271 -0.076162 3,850 266 163 -256
2018-06-18 09:41:58 GMT 51.465500 -0.072556 3,850 259 164 64
2018-06-18 09:41:54 GMT 51.466015 -0.067749 3,850 249 165 -256
2018-06-18 09:41:51 GMT 51.466553 -0.064285 3,850 249 165 -256
2018-06-18 09:41:48 GMT 51.467651 -0.059682 3,900 241 166 -192
2018-06-18 09:41:44 GMT 51.469254 -0.055303 3,900 239 166 -192
2018-06-18 09:41:41 GMT 51.470123 -0.053224 3,900 239 166 -256
2018-06-18 09:41:38 GMT 51.471134 -0.050049 3,925 240 166 -256
2018-06-18 09:41:35 GMT 51.472576 -0.045776 3,925 240 166 -192
2018-06-18 09:41:32 GMT 51.473602 -0.043640 3,950 240 166 -384
2018-06-18 09:41:29 GMT 51.474953 -0.039368 3,950 240 166 -320
2018-06-18 09:41:25 GMT 51.476486 -0.036225 3,975 240 166 -192
2018-06-18 09:41:22 GMT 51.477467 -0.033035 3,975 240 167 -192
2018-06-18 09:41:19 GMT 51.478909 -0.028763 4,000 240 167 -320
2018-06-18 09:41:16 GMT 51.479794 -0.026550 4,025 240 167 -128
2018-06-18 09:41:13 GMT 51.481560 -0.022278 4,025 240 167 -64
2018-06-18 09:41:10 GMT 51.481979 -0.021156 4,025 238 167 -192
2018-06-18 09:41:07 GMT 51.483444 -0.016999 4,025 230 168 -128
2018-06-18 09:41:03 GMT 51.485474 -0.011826 4,025 234 167 -64
2018-06-18 09:41:00 GMT 51.486633 -0.009842 4,050 225 169 -192
2018-06-18 09:40:57 GMT 51.488823 -0.006332 4,050 220 171 -192
2018-06-18 09:40:54 GMT 51.490540 -0.004083 4,050 206 175 -64
2018-06-18 09:40:51 GMT 51.492733 -0.002365 4,050 203 176 -128
2018-06-18 09:40:48 GMT 51.494411 -0.001450 4,125 175 188 -448
2018-06-18 09:40:45 GMT 51.496948 -0.000520 4,075 187 184 -448
2018-06-18 09:40:41 GMT 51.500427 -0.000074 4,100 179 187 -384
2018-06-18 09:40:38 GMT 51.502743 -0.000305 4,150 170 191 -512
2018-06-18 09:40:35 GMT 51.505051 -0.000891 4,150 169 192 -576
2018-06-18 09:40:32 GMT 51.508144 -0.001602 4,200 169 192 -320
2018-06-18 09:40:29 GMT 51.510590 -0.002450 4,200 169 192 -256
2018-06-18 09:40:26 GMT 51.512985 -0.003204 4,225 169 193 -512
2018-06-18 09:40:23 GMT 51.515900 -0.004009 4,250 169 194 -576
2018-06-18 09:40:20 GMT 51.519516 -0.005048 4,275 169 194 -640
2018-06-18 09:40:17 GMT 51.521782 -0.005875 4,325 169 193 -512
2018-06-18 09:40:14 GMT 51.523552 -0.006332 4,350 170 193 -576
2018-06-18 09:40:11 GMT 51.526997 -0.007324 4,350 170 194 -704
2018-06-18 09:40:08 GMT 51.529633 -0.008091 4,400 171 195 -704
2018-06-18 09:40:05 GMT 51.531784 -0.008537 4,425 171 195 -768
2018-06-18 09:40:02 GMT 51.534988 -0.009427 4,475 171 196 -768
2018-06-18 09:39:59 GMT 51.537323 -0.009873 4,500 171 197 -704
2018-06-18 09:39:56 GMT 51.540077 -0.010529 4,550 170 198 -704
2018-06-18 09:39:53 GMT 51.542816 -0.011283 4,550 169 201 -704
2018-06-18 09:39:50 GMT 51.545975 -0.012397 4,625 155 213 -640
2018-06-18 09:39:47 GMT 51.549294 -0.013504 4,625 163 207 -512
2018-06-18 09:39:44 GMT 51.551159 -0.014343 4,650 155 213 -640
2018-06-18 09:39:41 GMT 51.553848 -0.016034 4,675 153 215 -704
2018-06-18 09:39:38 GMT 51.557190 -0.019003 4,700 145 222 -640
2018-06-18 09:39:35 GMT 51.558655 -0.020859 4,750 140 225 -640
2018-06-18 09:39:32 GMT 51.561539 -0.024033 4,800 132 232 -768
2018-06-18 09:39:29 GMT 51.564423 -0.029068 4,825 126 235 -576
2018-06-18 09:39:26 GMT 51.565495 -0.031967 4,875 123 237 -576
2018-06-18 09:39:23 GMT 51.567123 -0.036374 4,875 117 242 -576
2018-06-18 09:39:20 GMT 51.569504 -0.042758 4,900 116 243 -448
2018-06-18 09:39:17 GMT 51.570511 -0.045950 4,925 116 245 -320
2018-06-18 09:39:13 GMT 51.572899 -0.054245 4,950 116 259 -896
2018-06-18 09:39:09 GMT 51.574631 -0.059311 5,000 116 252 -768
2018-06-18 09:39:06 GMT 51.576874 -0.065992 5,125 116 261 -896
2018-06-18 09:39:03 GMT 51.578205 -0.071106 5,125 116 258 -832
2018-06-18 09:39:00 GMT 51.579601 -0.074615 5,150 116 261 -896
2018-06-18 09:38:57 GMT 51.581131 -0.079725 5,200 116 263 -640
2018-06-18 09:38:54 GMT 51.582626 -0.084991 5,225 116 264 -640
2018-06-18 09:38:51 GMT 51.583969 -0.090415 5,225 116 266 -768
2018-06-18 09:38:48 GMT 51.585930 -0.095749 5,300 116 269 -768
2018-06-18 09:38:44 GMT 51.588211 -0.102844 5,375 116 269 -960
2018-06-18 09:38:41 GMT 51.589966 -0.108230 5,350 116 269 -768
2018-06-18 09:38:38 GMT 51.591423 -0.113525 5,525 116 268 -1024
2018-06-18 09:38:34 GMT 51.593948 -0.122631 5,500 116 269 -768
2018-06-18 09:38:30 GMT 51.596375 -0.129757 5,525 116 269 -768
2018-06-18 09:38:27 GMT 51.597801 -0.135040 5,550 116 268 -704
2018-06-18 09:38:23 GMT 51.599670 -0.140447 5,750 116 269 -512
2018-06-18 09:38:20 GMT 51.601341 -0.145950 5,650 116 270 -768
2018-06-18 09:38:17 GMT 51.603058 -0.151285 5,675 116 270 -704
2018-06-18 09:38:13 GMT 51.605530 -0.160370 5,725 116 269 -576
2018-06-18 09:38:10 GMT 51.607178 -0.165611 5,750 116 269 -576
2018-06-18 09:38:07 GMT 51.608883 -0.171051 5,775 116 269 -512
2018-06-18 09:38:02 GMT 51.611847 -0.180012 5,825 116 270 -512
2018-06-18 09:37:59 GMT 51.613770 -0.185471 5,850 116 269 -384
2018-06-18 09:37:56 GMT 51.615417 -0.190850 5,875 116 268 -576
2018-06-18 09:37:52 GMT 51.617477 -0.198051 5,900 116 268 -512
2018-06-18 09:37:49 GMT 51.618938 -0.203476 5,925 116 268 -576
2018-06-18 09:37:46 GMT 51.620148 -0.206909 5,950 116 268 -576
2018-06-18 09:37:43 GMT 51.621597 -0.212378 6,000 115 286 -640
2018-06-18 09:37:40 GMT 51.623592 -0.217819 6,025 116 273 -448
2018-06-18 09:37:37 GMT 51.625595 -0.225067 6,025 116 274 -448
2018-06-18 09:37:34 GMT 51.627083 -0.228729 6,075 116 277 -576
2018-06-18 09:37:31 GMT 51.628693 -0.234202 6,075 116 277 -576
2018-06-18 09:37:28 GMT 51.630615 -0.241699 6,100 116 278 -704
2018-06-18 09:37:25 GMT 51.632080 -0.245485 6,200 116 280 -704
2018-06-18 09:37:22 GMT 51.634460 -0.252908 6,200 116 281 -704
2018-06-18 09:37:19 GMT 51.635559 -0.256694 6,200 116 281 -704
2018-06-18 09:37:16 GMT 51.637417 -0.262375 6,250 115 283 -768
2018-06-18 09:37:13 GMT 51.639652 -0.269852 6,300 115 283 -704
2018-06-18 09:37:10 GMT 51.641098 -0.275697 6,325 115 284 -768
2018-06-18 09:37:07 GMT 51.642818 -0.281372 6,400 115 284 -768
2018-06-18 09:37:04 GMT 51.644073 -0.285187 6,400 115 285 -640
2018-06-18 09:37:01 GMT 51.646042 -0.290989 6,425 115 284 -704
2018-06-18 09:36:58 GMT 51.648010 -0.298561 6,475 115 286 -704
2018-06-18 09:36:55 GMT 51.649338 -0.302347 6,625 115 284 -704
2018-06-18 09:36:52 GMT 51.651718 -0.310141 6,550 115 286 -640
2018-06-18 09:36:48 GMT 51.653152 -0.315781 6,600 115 284 -704
2018-06-18 09:36:45 GMT 51.655342 -0.323410 6,600 115 286 -704
2018-06-18 09:36:42 GMT 51.656830 -0.327377 6,650 115 286 -704
2018-06-18 09:36:39 GMT 51.659111 -0.335007 6,700 115 284 -704
2018-06-18 09:36:36 GMT 51.660919 -0.340725 6,725 115 284 -704
2018-06-18 09:36:33 GMT 51.662090 -0.344543 6,750 115 285 -704
2018-06-18 09:36:30 GMT 51.663673 -0.350266 6,800 115 285 -640
2018-06-18 09:36:27 GMT 51.665451 -0.356016 6,825 115 285 -640
2018-06-18 09:36:24 GMT 51.666885 -0.361710 6,850 115 284 -640
2018-06-18 09:36:21 GMT 51.669075 -0.369415 6,875 115 284 -768
2018-06-18 09:36:18 GMT 51.671036 -0.375094 6,900 115 284 -768
2018-06-18 09:36:15 GMT 51.672455 -0.378954 6,950 115 284 -768
2018-06-18 09:36:12 GMT 51.673820 -0.384827 6,975 115 284 -192
2018-06-18 09:36:09 GMT 51.675659 -0.390460 7,000 115 284 64
2018-06-18 09:36:06 GMT 51.677265 -0.396194 7,000 118 282 64
2018-06-18 09:36:03 GMT 51.679592 -0.403824 7,000 115 284 0
2018-06-18 09:35:58 GMT 51.681873 -0.411530 7,000 115 284 -64
2018-06-18 09:35:55 GMT 51.683876 -0.419083 7,000 115 284 0
2018-06-18 09:35:52 GMT 51.685509 -0.423050 7,000 115 284 -64
2018-06-18 09:35:49 GMT 51.687416 -0.430756 7,000 115 284 0
2018-06-18 09:35:46 GMT 51.689438 -0.436484 7,000 115 284 0
2018-06-18 09:35:43 GMT 51.690308 -0.440195 7,000 115 284 64
2018-06-18 09:35:40 GMT 51.692162 -0.446014 7,000 116 285 0
2018-06-18 09:35:37 GMT 51.693878 -0.451627 7,000 115 283 0
2018-06-18 09:35:34 GMT 51.695801 -0.459422 7,000 115 283 0
2018-06-18 09:35:31 GMT 51.697750 -0.465012 7,000 115 283 0
2018-06-18 09:35:28 GMT 51.698914 -0.468826 7,000 115 284 64
2018-06-18 09:35:24 GMT 51.701149 -0.476456 7,000 115 283 -64
2018-06-18 09:35:21 GMT 51.702988 -0.482285 7,000 115 283 0
2018-06-18 09:35:18 GMT 51.705048 -0.489931 7,000 115 284 64
2018-06-18 09:35:14 GMT 51.707108 -0.497503 7,000 116 285 -64
2018-06-18 09:35:11 GMT 51.708878 -0.503235 7,000 116 285 -64
2018-06-18 09:35:08 GMT 51.710411 -0.507050 7,000 116 285 -64
2018-06-18 09:35:05 GMT 51.712551 -0.514603 7,000 117 284 -64
2018-06-18 09:35:02 GMT 51.714294 -0.520143 7,025 118 282 192
2018-06-18 09:34:59 GMT 51.715805 -0.523929 7,000 119 282 192
2018-06-18 09:34:56 GMT 51.717861 -0.529480 7,000 121 281 -64
2018-06-18 09:34:53 GMT 51.719833 -0.534841 7,000 126 279 64
2018-06-18 09:34:50 GMT 51.721771 -0.540237 7,000 126 279 64
2018-06-18 09:34:47 GMT 51.724331 -0.546951 7,000 126 279 -64
2018-06-18 09:34:44 GMT 51.726425 -0.550461 7,000 126 279 0
2018-06-18 09:34:41 GMT 51.729359 -0.557022 7,000 126 279 64
2018-06-18 09:34:38 GMT 51.731506 -0.562084 7,000 126 279 64
2018-06-18 09:34:34 GMT 51.734573 -0.568839 7,000 125 279 -64
2018-06-18 09:34:31 GMT 51.736450 -0.572328 7,000 125 279 -64
2018-06-18 09:34:28 GMT 51.738483 -0.577164 7,000 125 280 -64
2018-06-18 09:34:25 GMT 51.740845 -0.582424 7,000 125 287 -64
2018-06-18 09:34:22 GMT 51.743324 -0.587463 7,000 125 282 128
2018-06-18 09:34:18 GMT 51.746521 -0.596008 7,000 126 287 0
2018-06-18 09:34:15 GMT 51.748489 -0.599423 7,000 126 287 0
2018-06-18 09:34:12 GMT 51.751099 -0.604693 7,000 126 292 64
2018-06-18 09:34:09 GMT 51.753342 -0.609815 7,000 126 293 128
2018-06-18 09:34:06 GMT 51.755753 -0.615082 7,000 126 297 0
2018-06-18 09:34:03 GMT 51.758549 -0.622253 7,000 126 298 -64
2018-06-18 09:34:00 GMT 51.761490 -0.627780 7,000 125 302 64
2018-06-18 09:33:57 GMT 51.762955 -0.631417 7,000 125 305 64
2018-06-18 09:33:54 GMT 51.765575 -0.636826 7,000 125 307 0
2018-06-18 09:33:51 GMT 51.768082 -0.642403 7,000 125 312 192
2018-06-18 09:33:48 GMT 51.771011 -0.649901 7,000 125 317 0
2018-06-18 09:33:45 GMT 51.773071 -0.653761 7,000 125 315 64
2018-06-18 09:33:42 GMT 51.775631 -0.659485 7,000 125 317 0
2018-06-18 09:33:39 GMT 51.778610 -0.667191 7,000 125 320 0
2018-06-18 09:33:35 GMT 51.781769 -0.672838 7,000 125 330 0
2018-06-18 09:33:32 GMT 51.784653 -0.680855 7,000 125 328 0
2018-06-18 09:33:29 GMT 51.787361 -0.686646 7,000 125 330 0
2018-06-18 09:33:26 GMT 51.789879 -0.690765 7,000 126 335 0
2018-06-18 09:33:23 GMT 51.792206 -0.696815 7,000 126 364 -1280
2018-06-18 09:33:20 GMT 51.794952 -0.702972 7,000 126 345 128
2018-06-18 09:33:17 GMT 51.798721 -0.711136 6,975 126 346 -64
2018-06-18 09:33:13 GMT 51.801819 -0.717378 7,000 126 348 -192
2018-06-18 09:33:10 GMT 51.804840 -0.725988 7,000 125 352 -256
2018-06-18 09:33:07 GMT 51.808170 -0.732346 7,000 125 355 -64
2018-06-18 09:33:03 GMT 51.811569 -0.738905 7,025 125 359 -128
2018-06-18 09:33:00 GMT 51.814178 -0.745316 7,250 126 364 -1280
2018-06-18 09:32:56 GMT 51.818226 -0.754013 7,150 126 364 -1280
2018-06-18 09:32:53 GMT 51.821999 -0.765076 7,150 126 365 -1216
2018-06-18 09:32:50 GMT 51.823952 -0.767212 7,250 126 366 -1152
2018-06-18 09:32:47 GMT 51.827133 -0.774017 7,275 126 368 -1152
2018-06-18 09:32:44 GMT 51.830143 -0.780640 7,350 125 382 -1408
2018-06-18 09:32:41 GMT 51.833542 -0.789566 7,375 125 371 -1088
2018-06-18 09:32:38 GMT 51.836517 -0.796212 7,425 125 373 -1152
2018-06-18 09:32:35 GMT 51.839687 -0.803070 7,550 125 381 -1344
2018-06-18 09:32:32 GMT 51.842201 -0.807724 7,575 125 381 -1344
2018-06-18 09:32:29 GMT 51.845123 -0.814473 7,625 125 378 -1280
2018-06-18 09:32:26 GMT 51.848068 -0.821228 7,725 125 381 -1344
2018-06-18 09:32:23 GMT 51.852165 -0.830688 7,825 125 384 -1408
2018-06-18 09:32:20 GMT 51.854965 -0.837411 8,000 125 384 -1408
2018-06-18 09:32:17 GMT 51.857574 -0.842161 8,000 125 385 -1408
2018-06-18 09:32:14 GMT 51.860916 -0.849152 8,075 125 385 -1408
2018-06-18 09:32:11 GMT 51.863152 -0.853882 8,025 125 386 -1472
2018-06-18 09:32:08 GMT 51.866779 -0.863342 8,125 125 389 -1792
2018-06-18 09:32:05 GMT 51.871391 -0.872726 8,150 125 389 -1792
2018-06-18 09:32:02 GMT 51.873486 -0.877457 8,400 125 389 -2176
2018-06-18 09:31:59 GMT 51.876617 -0.884399 8,450 125 389 -2368
2018-06-18 09:31:56 GMT 51.880783 -0.893975 8,525 125 388 -2432
2018-06-18 09:31:53 GMT 51.883492 -0.901031 8,900 125 388 -2304
2018-06-18 09:31:49 GMT 51.888149 -0.910416 8,750 125 388 -2176
2018-06-18 09:31:46 GMT 51.890854 -0.917433 8,825 125 388 -1984
2018-06-18 09:31:43 GMT 51.893555 -0.922089 9,075 125 388 -2496
2018-06-18 09:31:39 GMT 51.898296 -0.933838 9,075 125 387 -2624
2018-06-18 09:31:36 GMT 51.900299 -0.938782 9,225 125 387 -2560
2018-06-18 09:31:33 GMT 51.904396 -0.948042 9,325 125 387 -2560
2018-06-18 09:31:30 GMT 51.907471 -0.955200 9,475 125 386 -3456
2018-06-18 09:31:27 GMT 51.910774 -0.962245 9,575 125 386 -3456
2018-06-18 09:31:24 GMT 51.912960 -0.966875 9,800 125 387 -3328
2018-06-18 09:31:21 GMT 51.916920 -0.976292 9,900 125 388 -3328
2018-06-18 09:31:18 GMT 51.919662 -0.981079 10,275 125 388 -3264
2018-06-18 09:31:15 GMT 51.922989 -0.988235 10,200 125 389 -3264
2018-06-18 09:31:12 GMT 51.927246 -0.997696 10,625 125 392 -3264
2018-06-18 09:31:09 GMT 51.929440 -1.004778 10,525 125 389 -3200
2018-06-18 09:31:06 GMT 51.932922 -1.011887 10,750 125 392 -3264
2018-06-18 09:31:03 GMT 51.935440 -1.016617 10,925 125 392 -3200
2018-06-18 09:31:00 GMT 51.939331 -1.026154 11,050 125 393 -3264
2018-06-18 09:30:57 GMT 51.941391 -1.031036 11,250 125 394 -3200
2018-06-18 09:30:54 GMT 51.945694 -1.040573 11,425 125 394 -3200
2018-06-18 09:30:50 GMT 51.949631 -1.050186 12,150 139 420 -2112
2018-06-18 09:30:47 GMT 51.953182 -1.057434 11,675 125 397 -3264
2018-06-18 09:30:44 GMT 51.955948 -1.064835 11,875 125 398 -3392
2018-06-18 09:30:41 GMT 51.958649 -1.069717 12,025 125 398 -3392
2018-06-18 09:30:38 GMT 51.962074 -1.076817 12,200 125 399 -3456
2018-06-18 09:30:35 GMT 51.965240 -1.084213 12,300 125 400 -3648
2018-06-18 09:30:32 GMT 51.969910 -1.093903 12,525 125 400 -3776
2018-06-18 09:30:29 GMT 51.972107 -1.098862 12,650 125 400 -3840
2018-06-18 09:30:26 GMT 51.975952 -1.108551 12,975 125 399 -3904
2018-06-18 09:30:23 GMT 51.979019 -1.115897 13,050 126 399 -3840
2018-06-18 09:30:20 GMT 51.981533 -1.120684 13,800 128 400 -3392
2018-06-18 09:30:17 GMT 51.985016 -1.127853 13,600 127 399 -3648
2018-06-18 09:30:14 GMT 51.988998 -1.137238 13,650 129 400 -3392
2018-06-18 09:30:11 GMT 51.992020 -1.141968 14,200 132 400 -3456
2018-06-18 09:30:08 GMT 51.995682 -1.151199 14,050 131 400 -3520
2018-06-18 09:30:05 GMT 51.999023 -1.155624 14,275 139 400 -2176
2018-06-18 09:30:02 GMT 52.002853 -1.162432 14,300 133 400 -3904
2018-06-18 09:29:59 GMT 52.007370 -1.171221 14,400 136 397 -3328
2018-06-18 09:29:56 GMT 52.010117 -1.175616 14,650 134 398 -4672
2018-06-18 09:29:53 GMT 52.014175 -1.181946 14,900 135 396 -4672
2018-06-18 09:29:50 GMT 52.019257 -1.190262 15,100 136 398 -3008
2018-06-18 09:29:47 GMT 52.022499 -1.196568 15,175 136 397 -2880
2018-06-18 09:29:44 GMT 52.025383 -1.200492 15,550 139 397 -2304
2018-06-18 09:29:41 GMT 52.029922 -1.206589 15,425 138 397 -2624
2018-06-18 09:29:38 GMT 52.034088 -1.212498 15,750 139 399 -1728
2018-06-18 09:29:35 GMT 52.038437 -1.218414 15,675 139 399 -1792
2018-06-18 09:29:32 GMT 52.042610 -1.224191 15,825 139 399 -1728
2018-06-18 09:29:29 GMT 52.047497 -1.231960 15,875 139 401 -2240
2018-06-18 09:29:26 GMT 52.050846 -1.235883 16,025 139 401 -2304
2018-06-18 09:29:23 GMT 52.054459 -1.241837 16,050 139 401 -2304
2018-06-18 09:29:20 GMT 52.059368 -1.247733 16,200 139 401 -2048
2018-06-18 09:29:17 GMT 52.063751 -1.253586 16,275 139 402 -1984
2018-06-18 09:29:14 GMT 52.068073 -1.259347 16,400 139 403 -1856
2018-06-18 09:29:11 GMT 52.071762 -1.265335 16,600 139 403 -2432
2018-06-18 09:29:08 GMT 52.077301 -1.273193 16,725 139 403 -2432
2018-06-18 09:29:05 GMT 52.081009 -1.277084 16,900 139 405 -1856
2018-06-18 09:29:02 GMT 52.084553 -1.282968 16,825 139 405 -2048
2018-06-18 09:28:59 GMT 52.090137 -1.290894 17,000 139 407 -1216
2018-06-18 09:28:56 GMT 52.094193 -1.296997 17,000 139 409 -1152
2018-06-18 09:28:53 GMT 52.098660 -1.302979 17,050 139 416 -1792
2018-06-18 09:28:50 GMT 52.102474 -1.306902 17,100 139 412 -1216
2018-06-18 09:28:47 GMT 52.106781 -1.312943 17,275 139 414 -1600
2018-06-18 09:28:44 GMT 52.110527 -1.318909 17,300 139 417 -1920
2018-06-18 09:28:41 GMT 52.114288 -1.324997 17,300 139 416 -1792
2018-06-18 09:28:38 GMT 52.120743 -1.333389 17,450 139 419 -2112
2018-06-18 09:28:35 GMT 52.125008 -1.339390 17,475 139 417 -1920
2018-06-18 09:28:32 GMT 52.129715 -1.345444 17,600 139 419 -2112
2018-06-18 09:28:29 GMT 52.134129 -1.351711 17,675 139 419 -2112
2018-06-18 09:28:26 GMT 52.137573 -1.355791 17,800 139 419 -2176
2018-06-18 09:28:23 GMT 52.142651 -1.363953 17,850 139 421 -1984
2018-06-18 09:28:20 GMT 52.147339 -1.370316 17,975 139 421 -1984
2018-06-18 09:28:17 GMT 52.150131 -1.374435 18,075 139 421 -1984
2018-06-18 09:28:14 GMT 52.155807 -1.382523 18,200 139 421 -1984
2018-06-18 09:28:11 GMT 52.160759 -1.388829 18,275 139 421 -2048
2018-06-18 09:28:07 GMT 52.165329 -1.394958 18,375 139 421 -2560
2018-06-18 09:28:04 GMT 52.169834 -1.401149 18,600 139 421 -2752
2018-06-18 09:28:01 GMT 52.173752 -1.407471 18,825 139 422 -2688
2018-06-18 09:27:58 GMT 52.179337 -1.415558 18,850 139 422 -2304
2018-06-18 09:27:55 GMT 52.183228 -1.419754 18,900 139 422 -2240
2018-06-18 09:27:52 GMT 52.189178 -1.428070 19,075 139 423 -2048
2018-06-18 09:27:49 GMT 52.192383 -1.432419 19,800 134 442 -2176
2018-06-18 09:27:46 GMT 52.196369 -1.438738 19,275 138 426 -2368
2018-06-18 09:27:42 GMT 52.203003 -1.449280 19,425 137 428 -2368
2018-06-18 09:27:39 GMT 52.207916 -1.455924 19,475 137 428 -2368
2018-06-18 09:27:36 GMT 52.211700 -1.462479 19,850 136 429 -2240
2018-06-18 09:27:32 GMT 52.218109 -1.471252 19,750 136 429 -2112
2018-06-18 09:27:28 GMT 52.223236 -1.480103 19,900 134 437 -1600
2018-06-18 09:27:25 GMT 52.226166 -1.484604 20,100 135 433 -1984
2018-06-18 09:27:22 GMT 52.232758 -1.493530 20,125 135 434 -1920
2018-06-18 09:27:19 GMT 52.235367 -1.498184 20,350 135 434 -1920
2018-06-18 09:27:16 GMT 52.241135 -1.507492 20,275 134 436 -1664
2018-06-18 09:27:13 GMT 52.244522 -1.512070 20,325 134 437 -1600
2018-06-18 09:27:10 GMT 52.248322 -1.519017 20,450 134 439 -1728
2018-06-18 09:27:07 GMT 52.253723 -1.528512 20,525 134 439 -1792
2018-06-18 09:27:04 GMT 52.258667 -1.535416 20,600 134 440 -1984
2018-06-18 09:27:01 GMT 52.262054 -1.542402 20,675 135 441 -2048
2018-06-18 09:26:58 GMT 52.265781 -1.547267 20,775 134 441 -2176
2018-06-18 09:26:55 GMT 52.270065 -1.554337 21,000 134 444 -2240
2018-06-18 09:26:52 GMT 52.273926 -1.561393 21,025 134 444 -2240
2018-06-18 09:26:49 GMT 52.278809 -1.568527 21,075 134 444 -2240
2018-06-18 09:26:46 GMT 52.284485 -1.578140 21,200 134 444 -2304
2018-06-18 09:26:43 GMT 52.288918 -1.585170 21,325 134 445 -2304
2018-06-18 09:26:40 GMT 52.292587 -1.592484 21,450 134 446 -2112
2018-06-18 09:26:37 GMT 52.296112 -1.597366 21,500 134 446 -2112
2018-06-18 09:26:34 GMT 52.300835 -1.604553 21,675 134 449 -1984
2018-06-18 09:26:31 GMT 52.306515 -1.614049 21,725 134 449 -1984
2018-06-18 09:26:28 GMT 52.309399 -1.618835 21,850 134 450 -2048
2018-06-18 09:26:25 GMT 52.314472 -1.628723 21,900 134 451 -2048
2018-06-18 09:26:22 GMT 52.318336 -1.633589 22,100 134 456 -1984
2018-06-18 09:26:19 GMT 52.323460 -1.643162 22,125 134 451 -2176
2018-06-18 09:26:16 GMT 52.326111 -1.648028 22,175 134 452 -2240
2018-06-18 09:26:13 GMT 52.332069 -1.657601 22,325 134 453 -2304
2018-06-18 09:26:10 GMT 52.335934 -1.662467 22,475 134 454 -2112
2018-06-18 09:26:07 GMT 52.340332 -1.669922 22,950 134 456 -1984
2018-06-18 09:26:04 GMT 52.344547 -1.677141 22,875 134 458 -2176
2018-06-18 09:26:01 GMT 52.350365 -1.687029 22,750 134 458 -2176
2018-06-18 09:25:58 GMT 52.354752 -1.694183 22,850 134 458 -2304
2018-06-18 09:25:55 GMT 52.358791 -1.701625 23,425 134 461 -2112
2018-06-18 09:25:52 GMT 52.363403 -1.709213 23,275 134 464 -2240
2018-06-18 09:25:49 GMT 52.367340 -1.714172 23,175 134 464 -2240
2018-06-18 09:25:46 GMT 52.372925 -1.723938 23,425 134 462 -1920
2018-06-18 09:25:43 GMT 52.376621 -1.731367 23,425 134 462 -1920
2018-06-18 09:25:40 GMT 52.379879 -1.736468 23,525 134 464 -2240
2018-06-18 09:25:37 GMT 52.383911 -1.743927 23,700 134 464 -2432
2018-06-18 09:25:34 GMT 52.389191 -1.751378 23,650 134 464 -2240
2018-06-18 09:25:31 GMT 52.394257 -1.758728 23,825 134 465 -2624
2018-06-18 09:25:28 GMT 52.399750 -1.768799 23,950 134 465 -2624
2018-06-18 09:25:25 GMT 52.404133 -1.776254 24,025 134 465 -2432
2018-06-18 09:25:22 GMT 52.407253 -1.781119 24,175 134 466 -1792
2018-06-18 09:25:19 GMT 52.412651 -1.791242 24,225 134 467 -1792
2018-06-18 09:25:16 GMT 52.418655 -1.798859 24,425 134 468 -2304
2018-06-18 09:25:13 GMT 52.421082 -1.803741 24,400 134 469 -2880
2018-06-18 09:25:10 GMT 52.426895 -1.813889 24,575 134 469 -2880
2018-06-18 09:25:07 GMT 52.430786 -1.819077 24,725 134 469 -2624
2018-06-18 09:25:04 GMT 52.434391 -1.826634 25,425 134 470 -2368
2018-06-18 09:25:01 GMT 52.440071 -1.836836 24,975 134 470 -2368
2018-06-18 09:24:58 GMT 52.446774 -1.846959 25,250 134 472 -2432
2018-06-18 09:24:55 GMT 52.448822 -1.849289 25,175 134 472 -2432
2018-06-18 09:24:52 GMT 52.454041 -1.859436 25,350 134 473 -2496
2018-06-18 09:24:49 GMT 52.458645 -1.867126 25,525 134 473 -2496
2018-06-18 09:24:46 GMT 52.463287 -1.874847 25,550 134 473 -2432
2018-06-18 09:24:43 GMT 52.467911 -1.882507 25,625 134 474 -2176
2018-06-18 09:24:40 GMT 52.472305 -1.890106 28,050 134 498 -2112
2018-06-18 09:24:37 GMT 52.476990 -1.897888 25,825 134 475 -2176
2018-06-18 09:24:34 GMT 52.480946 -1.902989 26,050 134 475 -2112
2018-06-18 09:24:31 GMT 52.486530 -1.913269 26,025 134 476 -2112
2018-06-18 09:24:28 GMT 52.491943 -1.921082 26,150 134 479 -2048
2018-06-18 09:24:24 GMT 52.497528 -1.931381 26,275 134 479 -2048
2018-06-18 09:24:21 GMT 52.501942 -1.939244 26,350 134 479 -2048
2018-06-18 09:24:17 GMT 52.507278 -1.946869 26,775 134 482 -1920
2018-06-18 09:24:14 GMT 52.514694 -1.959804 26,650 134 482 -1984
2018-06-18 09:24:11 GMT 52.517673 -1.964983 26,675 134 482 -1984
2018-06-18 09:24:08 GMT 52.522110 -1.972961 26,850 134 484 -1984
2018-06-18 09:24:05 GMT 52.525864 -1.978226 27,375 134 489 -2048
2018-06-18 09:24:02 GMT 52.531036 -1.986014 27,400 134 487 -2048
2018-06-18 09:23:59 GMT 52.534836 -1.994019 27,125 134 487 -2048
2018-06-18 09:23:56 GMT 52.540066 -2.001944 27,175 134 489 -2048
2018-06-18 09:23:53 GMT 52.545364 -2.009888 27,300 134 490 -2048
2018-06-18 09:23:50 GMT 52.550903 -2.020416 27,400 134 491 -2048
2018-06-18 09:23:47 GMT 52.555103 -2.028469 27,475 134 491 -2048
2018-06-18 09:23:44 GMT 52.560883 -2.036591 27,725 134 494 -2176
2018-06-18 09:23:41 GMT 52.563538 -2.041779 27,675 134 494 -2112
2018-06-18 09:23:38 GMT 52.570175 -2.052612 27,800 134 494 -2112
2018-06-18 09:23:35 GMT 52.573380 -2.057953 27,900 134 496 -2112
2018-06-18 09:23:32 GMT 52.579468 -2.068710 28,050 134 497 -2112
2018-06-18 09:23:29 GMT 52.584476 -2.076808 28,100 134 498 -2112
2018-06-18 09:23:26 GMT 52.589218 -2.084808 28,250 134 499 -2176
2018-06-18 09:23:23 GMT 52.594673 -2.092896 28,325 134 500 -2304
2018-06-18 09:23:20 GMT 52.598209 -2.098467 28,475 134 501 -2240
2018-06-18 09:23:17 GMT 52.603794 -2.109297 28,525 134 501 -2176
2018-06-18 09:23:14 GMT 52.608582 -2.117538 28,750 134 505 -2112
2018-06-18 09:23:10 GMT 52.615311 -2.128220 28,775 134 504 -2176
2018-06-18 09:23:07 GMT 52.620045 -2.136448 28,850 134 504 -2176
2018-06-18 09:23:04 GMT 52.624969 -2.144775 29,100 134 505 -2112
2018-06-18 09:23:00 GMT 52.632111 -2.155685 29,200 134 509 -2048
2018-06-18 09:22:57 GMT 52.635223 -2.161179 29,325 134 507 -2048
2018-06-18 09:22:54 GMT 52.640434 -2.169407 29,350 134 508 -2048
2018-06-18 09:22:51 GMT 52.645569 -2.177887 29,425 134 509 -2048
2018-06-18 09:22:48 GMT 52.651749 -2.188797 29,625 134 510 -2048
2018-06-18 09:22:45 GMT 52.657051 -2.197344 29,850 134 510 -2112
2018-06-18 09:22:42 GMT 52.659565 -2.202837 29,800 134 520 -2176
2018-06-18 09:22:39 GMT 52.666222 -2.214059 29,800 134 514 -2112
2018-06-18 09:22:36 GMT 52.671478 -2.222443 29,975 134 514 -2176
2018-06-18 09:22:33 GMT 52.674454 -2.228012 30,125 134 514 -2176
2018-06-18 09:22:30 GMT 52.680862 -2.239151 30,275 134 516 -2176
2018-06-18 09:22:27 GMT 52.684341 -2.245026 30,250 134 517 -2240
2018-06-18 09:22:24 GMT 52.691162 -2.256241 30,400 134 519 -2304
2018-06-18 09:22:21 GMT 52.694641 -2.261887 30,450 134 520 -2240
2018-06-18 09:22:18 GMT 52.699833 -2.270325 30,675 134 519 -2304
2018-06-18 09:22:15 GMT 52.706676 -2.281625 30,700 134 520 -2240
2018-06-18 09:22:12 GMT 52.710571 -2.290268 30,850 134 521 -2240
2018-06-18 09:22:09 GMT 52.716358 -2.298654 30,950 134 521 -2240
2018-06-18 09:22:06 GMT 52.721695 -2.307053 31,075 134 520 -2176
2018-06-18 09:22:03 GMT 52.725994 -2.315683 31,100 134 520 -2176
2018-06-18 09:22:00 GMT 52.729904 -2.321568 31,450 134 520 -2176
2018-06-18 09:21:56 GMT 52.739170 -2.338361 31,475 134 520 -2176
2018-06-18 09:21:53 GMT 52.741699 -2.341232 31,475 134 519 -2304
2018-06-18 09:21:50 GMT 52.747421 -2.352676 31,625 134 519 -2304
2018-06-18 09:21:47 GMT 52.752811 -2.361197 31,775 134 519 -2112
2018-06-18 09:21:44 GMT 52.757996 -2.369766 31,850 134 519 -2048
2018-06-18 09:21:41 GMT 52.762115 -2.375336 31,900 134 519 -1792
2018-06-18 09:21:38 GMT 52.766495 -2.383955 32,025 134 519 -1536
2018-06-18 09:21:35 GMT 52.772594 -2.395412 32,125 134 519 -1536
2018-06-18 09:21:32 GMT 52.778870 -2.403793 32,175 134 521 -1536
2018-06-18 09:21:29 GMT 52.783257 -2.412441 32,225 134 521 -1536
2018-06-18 09:21:26 GMT 52.788345 -2.420807 32,300 134 521 -960
2018-06-18 09:21:23 GMT 52.791962 -2.426682 32,425 133 524 -960
2018-06-18 09:21:20 GMT 52.798141 -2.438049 32,550 134 526 -1216
2018-06-18 09:21:17 GMT 52.803131 -2.446577 32,425 134 524 -1152
2018-06-18 09:21:14 GMT 52.808807 -2.455444 32,600 133 525 -1472
2018-06-18 09:21:11 GMT 52.813187 -2.464076 32,550 133 524 -1600
2018-06-18 09:21:08 GMT 52.818970 -2.472763 32,650 133 524 -1600
2018-06-18 09:21:05 GMT 52.823151 -2.481419 32,700 133 525 -1280
2018-06-18 09:21:02 GMT 52.828354 -2.490082 32,800 133 525 -1280
2018-06-18 09:20:59 GMT 52.832657 -2.495651 32,900 134 526 -1216
2018-06-18 09:20:56 GMT 52.838562 -2.507172 32,925 134 527 -1472
2018-06-18 09:20:53 GMT 52.843307 -2.515948 32,975 134 527 -1472
2018-06-18 09:20:50 GMT 52.847683 -2.521912 33,050 134 528 -1600
2018-06-18 09:20:47 GMT 52.852661 -2.530518 33,175 133 527 -1600
2018-06-18 09:20:44 GMT 52.857971 -2.539254 33,350 133 529 -1024
2018-06-18 09:20:41 GMT 52.862595 -2.547760 33,275 133 529 -1024
2018-06-18 09:20:38 GMT 52.869141 -2.559586 33,325 133 529 -1152
2018-06-18 09:20:35 GMT 52.875008 -2.568290 33,375 133 530 -1216
2018-06-18 09:20:32 GMT 52.879440 -2.577057 33,475 133 530 -2048
2018-06-18 09:20:29 GMT 52.882828 -2.582855 33,525 133 530 -2048
2018-06-18 09:20:26 GMT 52.887299 -2.591675 33,700 133 529 -768
2018-06-18 09:20:23 GMT 52.895164 -2.603446 33,725 133 529 -1088
2018-06-18 09:20:20 GMT 52.898846 -2.609174 33,750 133 531 -256
2018-06-18 09:20:17 GMT 52.904022 -2.617950 33,800 133 531 -192
2018-06-18 09:20:14 GMT 52.909378 -2.629623 33,800 133 532 -768
2018-06-18 09:20:11 GMT 52.912529 -2.632717 33,825 133 532 -1024
2018-06-18 09:20:08 GMT 52.918861 -2.644174 33,850 133 531 -1088
2018-06-18 09:20:05 GMT 52.925381 -2.655945 33,925 133 531 -1024
2018-06-18 09:20:02 GMT 52.929703 -2.664871 34,000 133 529 -256
2018-06-18 09:19:59 GMT 52.935760 -2.673523 34,000 133 529 -256
2018-06-18 09:19:56 GMT 52.939297 -2.679408 34,000 133 529 0
2018-06-18 09:19:53 GMT 52.945023 -2.690944 34,000 133 528 0
2018-06-18 09:19:50 GMT 52.949913 -2.696908 34,000 133 527 0
2018-06-18 09:19:47 GMT 52.954193 -2.705612 34,000 133 526 0
2018-06-18 09:19:44 GMT 52.959595 -2.714408 34,000 133 490 0
2018-06-18 09:19:41 GMT 52.965878 -2.726022 34,000 133 522 0
2018-06-18 09:19:38 GMT 52.969742 -2.731750 34,000 133 518 -64
2018-06-18 09:19:35 GMT 52.974930 -2.740402 34,000 133 518 -64
2018-06-18 09:19:32 GMT 52.981567 -2.751846 34,000 133 510 64
2018-06-18 09:19:29 GMT 52.985001 -2.757568 34,025 133 514 0
2018-06-18 09:19:26 GMT 52.990082 -2.768860 34,000 133 509 64
2018-06-18 09:19:22 GMT 52.995441 -2.777265 34,000 133 507 64
2018-06-18 09:19:19 GMT 53.000565 -2.785797 34,000 133 504 -64
2018-06-18 09:19:16 GMT 53.005543 -2.794059 34,000 133 503 0
2018-06-18 09:19:12 GMT 53.014069 -2.807999 34,000 133 500 0
2018-06-18 09:19:08 GMT 53.021790 -2.821838 34,000 133 497 0
2018-06-18 09:19:05 GMT 53.025139 -2.827332 34,000 133 495 0
2018-06-18 09:19:02 GMT 53.029129 -2.835541 34,000 133 492 -64
2018-06-18 09:18:59 GMT 53.033707 -2.843497 34,000 133 490 0
2018-06-18 09:18:56 GMT 53.038513 -2.851791 34,000 133 485 0
2018-06-18 09:18:53 GMT 53.042496 -2.857285 34,000 133 486 64
2018-06-18 09:18:50 GMT 53.047852 -2.867889 34,000 133 483 0
2018-06-18 09:18:46 GMT 53.053211 -2.875828 34,000 133 479 128
2018-06-18 09:18:43 GMT 53.058517 -2.886579 34,000 133 478 128
2018-06-18 09:18:40 GMT 53.063736 -2.894516 34,000 133 475 128
2018-06-18 09:18:37 GMT 53.068573 -2.902352 34,000 133 474 64
2018-06-18 09:18:34 GMT 53.072617 -2.910156 33,975 133 470 128
2018-06-18 09:18:31 GMT 53.076050 -2.915497 33,975 133 469 128
2018-06-18 09:18:28 GMT 53.081406 -2.925797 33,975 133 466 128
2018-06-18 09:18:25 GMT 53.085297 -2.931061 33,975 133 463 128
2018-06-18 09:18:22 GMT 53.089291 -2.938607 33,975 133 463 64
2018-06-18 09:18:19 GMT 53.095901 -2.949102 33,975 133 460 -128
2018-06-18 09:18:16 GMT 53.098694 -2.954191 33,975 133 458 0
2018-06-18 09:18:13 GMT 53.104420 -2.964370 33,975 133 456 128
2018-06-18 09:18:10 GMT 53.109772 -2.974387 33,975 133 456 128
2018-06-18 09:18:07 GMT 53.113495 -2.979638 33,975 133 456 -128
2018-06-18 09:18:04 GMT 53.117020 -2.987261 33,975 133 458 -384
2018-06-18 09:18:01 GMT 53.120178 -2.992283 34,000 133 458 -320
2018-06-18 09:17:58 GMT 53.126175 -3.002485 34,025 133 459 -576
2018-06-18 09:17:55 GMT 53.130348 -3.010012 34,025 133 460 -1024
2018-06-18 09:17:52 GMT 53.133141 -3.015182 34,075 133 460 -1024
2018-06-18 09:17:49 GMT 53.136978 -3.020455 34,100 133 461 -1344
2018-06-18 09:17:46 GMT 53.142265 -3.030530 34,200 133 461 -1280
2018-06-18 09:17:43 GMT 53.147854 -3.040789 34,225 133 461 -1344
2018-06-18 09:17:40 GMT 53.151436 -3.045959 34,375 133 474 -1536
2018-06-18 09:17:37 GMT 53.156837 -3.056219 34,400 133 462 -1472
2018-06-18 09:17:34 GMT 53.160515 -3.061470 34,600 133 463 -1472
2018-06-18 09:17:30 GMT 53.167465 -3.074289 34,625 133 464 -1472
2018-06-18 09:17:27 GMT 53.171223 -3.082150 34,650 133 464 -1472
2018-06-18 09:17:24 GMT 53.174850 -3.087158 34,725 133 464 -1408
2018-06-18 09:17:21 GMT 53.180252 -3.097660 34,775 133 464 -1408
2018-06-18 09:17:18 GMT 53.183327 -3.102749 34,900 133 465 -1472
2018-06-18 09:17:15 GMT 53.188911 -3.113089 34,900 133 465 -1600
2018-06-18 09:17:12 GMT 53.194336 -3.120980 35,025 133 465 -1600
2018-06-18 09:17:09 GMT 53.198872 -3.128680 35,200 133 466 -1536
2018-06-18 09:17:06 GMT 53.201294 -3.133931 35,175 133 466 -1536
2018-06-18 09:17:03 GMT 53.206833 -3.144271 35,225 133 466 -1408
2018-06-18 09:16:59 GMT 53.212513 -3.154611 35,325 133 467 -1344
2018-06-18 09:16:56 GMT 53.217041 -3.162571 35,375 133 467 -1344
2018-06-18 09:16:53 GMT 53.220795 -3.167829 35,525 133 468 -1280
2018-06-18 09:16:50 GMT 53.226562 -3.178266 35,500 133 468 -1280
2018-06-18 09:16:47 GMT 53.229675 -3.183446 35,575 133 469 -1344
2018-06-18 09:16:44 GMT 53.234940 -3.193961 35,625 133 469 -1344
2018-06-18 09:16:41 GMT 53.238602 -3.199140 35,725 133 470 -1408
2018-06-18 09:16:38 GMT 53.243774 -3.209577 35,775 133 470 -1344
2018-06-18 09:16:35 GMT 53.248962 -3.217621 35,875 133 471 -1216
2018-06-18 09:16:32 GMT 53.254074 -3.225586 35,950 133 472 -1216
2018-06-18 09:16:29 GMT 53.257298 -3.233293 35,975 133 473 -1344
2018-06-18 09:16:26 GMT 53.261112 -3.238705 36,050 133 473 -1344
2018-06-18 09:16:23 GMT 53.266979 -3.249287 36,125 133 473 -1472
2018-06-18 09:16:20 GMT 53.270920 -3.257289 36,150 133 474 -1728
2018-06-18 09:16:17 GMT 53.275593 -3.265201 36,250 133 474 -1664
2018-06-18 09:16:14 GMT 53.279594 -3.270371 36,350 133 475 -1664
2018-06-18 09:16:11 GMT 53.284058 -3.278556 36,425 133 474 -1664
2018-06-18 09:16:08 GMT 53.290009 -3.289071 36,500 133 474 -1536
2018-06-18 09:16:05 GMT 53.292709 -3.294250 36,525 133 474 -1536
2018-06-18 09:16:02 GMT 53.298157 -3.305001 36,650 133 476 -1408
2018-06-18 09:15:59 GMT 53.303524 -3.313186 36,750 133 476 -1408
2018-06-18 09:15:56 GMT 53.306686 -3.318437 36,775 133 476 -1408
2018-06-18 09:15:53 GMT 53.311386 -3.326425 36,875 133 477 -1472
2018-06-18 09:15:50 GMT 53.315254 -3.334351 37,000 133 477 -1472
2018-06-18 09:15:47 GMT 53.321117 -3.345256 37,025 133 478 -1472
2018-06-18 09:15:44 GMT 53.324844 -3.350507 37,050 133 478 -1472
2018-06-18 09:15:41 GMT 53.331177 -3.361251 37,225 133 479 -1280
2018-06-18 09:15:38 GMT 53.334389 -3.366502 37,225 133 479 -1280
2018-06-18 09:15:35 GMT 53.338623 -3.374529 37,300 133 480 -1216
2018-06-18 09:15:32 GMT 53.342442 -3.382739 37,375 133 481 -1280
2018-06-18 09:15:29 GMT 53.347046 -3.390852 37,400 133 482 -1280
2018-06-18 09:15:26 GMT 53.352448 -3.399057 37,500 133 486 -1344
2018-06-18 09:15:23 GMT 53.356659 -3.407017 37,650 133 483 -1280
2018-06-18 09:15:20 GMT 53.362656 -3.417925 37,575 133 483 -1344
2018-06-18 09:15:17 GMT 53.367393 -3.426119 37,750 133 485 -1344
2018-06-18 09:15:14 GMT 53.370373 -3.431773 37,700 133 485 -1344
2018-06-18 09:15:11 GMT 53.376053 -3.442598 37,800 133 486 -1344
2018-06-18 09:15:08 GMT 53.381012 -3.450649 37,850 133 486 -1344
2018-06-18 09:15:04 GMT 53.386551 -3.461557 37,925 133 487 -1408
2018-06-18 09:15:01 GMT 53.389618 -3.467364 37,975 133 487 -1408
2018-06-18 09:14:58 GMT 53.394581 -3.475315 38,175 133 488 -1856
2018-06-18 09:14:55 GMT 53.400307 -3.486301 38,200 133 488 -1600
2018-06-18 09:14:52 GMT 53.404861 -3.494673 38,225 133 488 -1792
2018-06-18 09:14:49 GMT 53.410080 -3.502861 38,350 133 488 -1984
2018-06-18 09:14:46 GMT 53.414978 -3.511309 38,450 133 488 -2048
2018-06-18 09:14:43 GMT 53.418785 -3.519422 38,525 133 487 -1792
2018-06-18 09:14:40 GMT 53.425720 -3.530408 38,650 133 486 -1216
2018-06-18 09:14:37 GMT 53.428097 -3.535982 38,700 133 486 -1344
2018-06-18 09:14:34 GMT 53.432785 -3.544111 38,775 133 486 -1280
2018-06-18 09:14:31 GMT 53.436630 -3.549526 38,875 133 485 -1344
2018-06-18 09:14:28 GMT 53.442490 -3.560512 38,900 133 485 -1344
2018-06-18 09:14:25 GMT 53.447044 -3.568699 39,000 133 483 0
2018-06-18 09:14:22 GMT 53.451736 -3.577070 39,000 133 483 -384
2018-06-18 09:14:19 GMT 53.455750 -3.585259 39,000 133 484 0
2018-06-18 09:14:16 GMT 53.459892 -3.590510 39,000 133 483 0
2018-06-18 09:14:13 GMT 53.465805 -3.601658 39,000 133 483 -64
2018-06-18 09:14:10 GMT 53.468784 -3.606989 39,000 133 483 -64
2018-06-18 09:14:07 GMT 53.473434 -3.615287 39,025 133 483 0
2018-06-18 09:14:04 GMT 53.478142 -3.623469 39,025 133 483 0
2018-06-18 09:14:01 GMT 53.483540 -3.634455 39,000 133 483 64
2018-06-18 09:13:58 GMT 53.488541 -3.642596 39,000 133 483 64
2018-06-18 09:13:55 GMT 53.492523 -3.650854 39,000 133 483 0
2018-06-18 09:13:52 GMT 53.497192 -3.658918 39,000 133 483 64
2018-06-18 09:13:49 GMT 53.501976 -3.667172 39,000 133 483 0
2018-06-18 09:13:46 GMT 53.505608 -3.672584 39,000 133 483 0
2018-06-18 09:13:43 GMT 53.509735 -3.680812 39,000 133 483 0
2018-06-18 09:13:39 GMT 53.516281 -3.691720 39,000 133 483 0
2018-06-18 09:13:36 GMT 53.521637 -3.702706 39,000 133 483 0
2018-06-18 09:13:33 GMT 53.527359 -3.713771 39,000 133 483 64
2018-06-18 09:13:30 GMT 53.530277 -3.716287 39,000 133 483 0
2018-06-18 09:13:27 GMT 53.534637 -3.724601 39,000 133 483 64
2018-06-18 09:13:24 GMT 53.540588 -3.735587 39,000 133 483 64
2018-06-18 09:13:20 GMT 53.544758 -3.743591 39,000 133 483 0
2018-06-18 09:13:17 GMT 53.549973 -3.751910 39,000 133 483 0
2018-06-18 09:13:14 GMT 53.555008 -3.762896 39,000 132 482 0
2018-06-18 09:13:11 GMT 53.560165 -3.771057 39,000 132 482 0
2018-06-18 09:13:07 GMT 53.566311 -3.782124 39,000 132 482 0
2018-06-18 09:13:04 GMT 53.571121 -3.790205 39,000 132 483 64
2018-06-18 09:13:01 GMT 53.573456 -3.795855 39,000 132 482 0
2018-06-18 09:12:58 GMT 53.578320 -3.804016 39,000 133 483 0
2018-06-18 09:12:55 GMT 53.583954 -3.815083 39,000 132 483 64
2018-06-18 09:12:52 GMT 53.587723 -3.820496 39,000 132 483 0
2018-06-18 09:12:49 GMT 53.592682 -3.828578 39,000 132 483 0
2018-06-18 09:12:46 GMT 53.598175 -3.839643 39,000 132 483 0
2018-06-18 09:12:43 GMT 53.603413 -3.847961 39,000 132 483 0
2018-06-18 09:12:39 GMT 53.608719 -3.858948 39,000 132 483 -64
2018-06-18 09:12:36 GMT 53.612492 -3.864279 39,000 132 483 -128
2018-06-18 09:12:33 GMT 53.616943 -3.872602 39,000 132 483 -64
2018-06-18 09:12:30 GMT 53.621708 -3.881001 39,025 132 483 64
2018-06-18 09:12:27 GMT 53.627853 -3.892068 39,025 132 483 0
2018-06-18 09:12:24 GMT 53.630737 -3.897319 39,000 132 483 0
2018-06-18 09:12:21 GMT 53.635300 -3.905640 39,000 132 483 0
2018-06-18 09:12:16 GMT 53.642796 -3.919453 39,000 132 474 0
2018-06-18 09:12:13 GMT 53.648987 -3.930440 39,000 132 483 192
2018-06-18 09:12:10 GMT 53.652153 -3.936014 39,000 132 483 0
2018-06-18 09:12:07 GMT 53.655533 -3.944170 39,000 132 483 0
2018-06-18 09:12:04 GMT 53.661392 -3.955392 39,000 132 484 0
2018-06-18 09:12:01 GMT 53.665977 -3.963399 39,000 132 484 64
2018-06-18 09:11:58 GMT 53.671463 -3.971715 39,000 132 484 0
2018-06-18 09:11:55 GMT 53.675198 -3.980201 39,000 132 484 0
2018-06-18 09:11:52 GMT 53.680344 -3.988429 39,000 132 484 0
2018-06-18 09:11:49 GMT 53.684692 -3.996519 39,000 132 484 0
2018-06-18 09:11:46 GMT 53.687950 -4.002255 39,000 132 484 0
2018-06-18 09:11:43 GMT 53.692612 -4.010402 39,000 132 484 0
2018-06-18 09:11:40 GMT 53.697399 -4.018815 39,000 132 484 0
2018-06-18 09:11:37 GMT 53.701904 -4.026960 39,000 132 484 64
2018-06-18 09:11:33 GMT 53.707397 -4.038103 39,000 132 484 0
2018-06-18 09:11:30 GMT 53.712532 -4.046281 39,000 132 484 0
2018-06-18 09:11:27 GMT 53.717743 -4.057509 39,000 132 484 0
2018-06-18 09:11:24 GMT 53.722687 -4.065883 39,000 132 484 0
2018-06-18 09:11:21 GMT 53.727894 -4.074070 39,000 132 484 0
2018-06-18 09:11:18 GMT 53.730778 -4.079563 39,000 132 484 0
2018-06-18 09:11:15 GMT 53.735184 -4.087934 39,000 132 485 0
2018-06-18 09:11:11 GMT 53.741455 -4.099077 39,000 132 485 0
2018-06-18 09:11:08 GMT 53.746002 -4.107352 39,000 132 486 -64
2018-06-18 09:11:05 GMT 53.751541 -4.118581 39,000 132 486 -64
2018-06-18 09:11:02 GMT 53.755547 -4.124154 39,000 132 486 64
2018-06-18 09:10:59 GMT 53.760040 -4.132429 39,000 132 486 0
2018-06-18 09:10:56 GMT 53.765579 -4.143651 39,000 132 486 -64
2018-06-18 09:10:53 GMT 53.769604 -4.151782 39,000 132 486 0
2018-06-18 09:10:50 GMT 53.776215 -4.163091 39,000 132 486 64
2018-06-18 09:10:47 GMT 53.779285 -4.168746 39,000 132 486 64
2018-06-18 09:10:43 GMT 53.783066 -4.177002 39,000 132 486 64
2018-06-18 09:10:40 GMT 53.787991 -4.185226 39,000 132 486 0
2018-06-18 09:10:37 GMT 53.794136 -4.196454 39,000 132 486 0
2018-06-18 09:10:34 GMT 53.797348 -4.202028 39,000 132 486 64
2018-06-18 09:10:31 GMT 53.803352 -4.213338 39,000 132 486 0
2018-06-18 09:10:28 GMT 53.807217 -4.218912 39,000 132 486 0
2018-06-18 09:10:25 GMT 53.811676 -4.227068 39,000 132 486 0
2018-06-18 09:10:22 GMT 53.817078 -4.238368 39,000 132 487 0
2018-06-18 09:10:19 GMT 53.821697 -4.246862 39,000 132 487 64
2018-06-18 09:10:16 GMT 53.824722 -4.252436 39,000 132 487 0
2018-06-18 09:10:13 GMT 53.830727 -4.263422 39,000 132 488 0
2018-06-18 09:10:10 GMT 53.834591 -4.269077 39,000 132 488 0
2018-06-18 09:10:07 GMT 53.839664 -4.280306 39,000 132 488 0
2018-06-18 09:10:04 GMT 53.844543 -4.288670 39,000 132 488 0
2018-06-18 09:10:00 GMT 53.852325 -4.302682 39,000 132 488 0
2018-06-18 09:09:57 GMT 53.854340 -4.305620 39,000 132 488 64
2018-06-18 09:09:54 GMT 53.859970 -4.316685 39,000 132 488 0
2018-06-18 09:09:51 GMT 53.865456 -4.325301 39,000 132 488 0
2018-06-18 09:09:48 GMT 53.867783 -4.330714 39,000 132 488 64
2018-06-18 09:09:44 GMT 53.874710 -4.344857 39,000 132 488 64
2018-06-18 09:09:40 GMT 53.881989 -4.356001 39,000 132 489 0
2018-06-18 09:09:37 GMT 53.885193 -4.361572 39,000 132 489 0
2018-06-18 09:09:34 GMT 53.889896 -4.370216 39,000 132 489 0
2018-06-18 09:09:31 GMT 53.894596 -4.381445 39,000 132 489 0
2018-06-18 09:09:27 GMT 53.900162 -4.389980 39,000 132 489 -64
2018-06-18 09:09:24 GMT 53.904095 -4.398409 39,000 132 489 0
2018-06-18 09:09:21 GMT 53.910004 -4.409557 39,000 132 489 64
2018-06-18 09:09:18 GMT 53.913685 -4.415292 39,000 132 489 0
2018-06-18 09:09:15 GMT 53.919315 -4.426521 39,000 132 489 64
2018-06-18 09:09:11 GMT 53.923920 -4.434945 39,000 131 490 64
2018-06-18 09:09:08 GMT 53.929695 -4.443647 39,000 131 490 64
2018-06-18 09:09:05 GMT 53.935188 -4.454956 39,000 131 490 0
2018-06-18 09:09:02 GMT 53.938889 -4.463510 39,000 130 491 0
2018-06-18 09:08:59 GMT 53.941910 -4.469317 39,000 130 491 0
2018-06-18 09:08:56 GMT 53.947338 -4.478302 39,000 130 492 0
2018-06-18 09:08:52 GMT 53.954910 -4.492937 39,000 129 492 0
2018-06-18 09:08:49 GMT 53.959305 -4.501971 39,000 129 493 -64
2018-06-18 09:08:46 GMT 53.963058 -4.510986 39,000 128 493 0
2018-06-18 09:08:43 GMT 53.966080 -4.516950 39,000 128 494 64
2018-06-18 09:08:40 GMT 53.970711 -4.525963 39,000 128 494 64
2018-06-18 09:08:37 GMT 53.975552 -4.538081 39,000 127 495 64
2018-06-18 09:08:34 GMT 53.978577 -4.544382 39,000 126 495 128
2018-06-18 09:08:30 GMT 53.983746 -4.556660 39,000 126 495 64
2018-06-18 09:08:27 GMT 53.989098 -4.569262 39,000 125 496 0
2018-06-18 09:08:23 GMT 53.993591 -4.578709 39,000 125 497 64
2018-06-18 09:08:20 GMT 53.997803 -4.588488 39,000 124 497 0
2018-06-18 09:08:17 GMT 54.002831 -4.601010 39,000 124 497 64
2018-06-18 09:08:14 GMT 54.006958 -4.610726 39,000 124 497 0
2018-06-18 09:08:11 GMT 54.010929 -4.620397 39,000 124 497 64
2018-06-18 09:08:08 GMT 54.014786 -4.629796 39,000 124 497 64
2018-06-18 09:08:05 GMT 54.017578 -4.636230 39,000 124 497 0
2018-06-18 09:08:02 GMT 54.022659 -4.648943 39,000 124 497 0
2018-06-18 09:07:59 GMT 54.025177 -4.655457 39,000 124 497 0
2018-06-18 09:07:56 GMT 54.029938 -4.668169 39,000 124 498 0
2018-06-18 09:07:53 GMT 54.033928 -4.677995 39,000 124 497 0
2018-06-18 09:07:50 GMT 54.037327 -4.684296 39,000 124 497 0
2018-06-18 09:07:47 GMT 54.040741 -4.693987 39,000 124 497 64
2018-06-18 09:07:44 GMT 54.044636 -4.703522 39,000 124 497 0
2018-06-18 09:07:41 GMT 54.050034 -4.716285 39,000 124 497 0
2018-06-18 09:07:38 GMT 54.053925 -4.725926 39,000 124 498 0
2018-06-18 09:07:35 GMT 54.056534 -4.732518 39,000 124 497 -64
2018-06-18 09:07:32 GMT 54.060928 -4.742135 39,000 124 498 -64
2018-06-18 09:07:29 GMT 54.065536 -4.754818 39,000 124 498 64
2018-06-18 09:07:26 GMT 54.069580 -4.764771 39,000 124 497 0
2018-06-18 09:07:22 GMT 54.073635 -4.774367 39,000 124 498 0
2018-06-18 09:07:19 GMT 54.079128 -4.787131 39,000 124 498 0
2018-06-18 09:07:16 GMT 54.081783 -4.793593 39,000 124 498 64
2018-06-18 09:07:13 GMT 54.086857 -4.806276 39,000 124 498 128
2018-06-18 09:07:09 GMT 54.091415 -4.816092 39,000 124 498 -64
2018-06-18 09:07:06 GMT 54.094864 -4.825502 39,000 124 498 0
2018-06-18 09:07:03 GMT 54.099518 -4.838670 39,000 124 497 64
2018-06-18 09:07:00 GMT 54.103775 -4.848031 39,000 124 497 128
2018-06-18 09:06:57 GMT 54.106339 -4.854623 39,000 124 497 0
2018-06-18 09:06:54 GMT 54.111786 -4.867336 39,000 124 498 0
2018-06-18 09:06:51 GMT 54.115673 -4.877203 39,000 124 499 0
2018-06-18 09:06:48 GMT 54.119247 -4.886876 39,000 124 498 0
2018-06-18 09:06:45 GMT 54.121948 -4.893154 39,000 124 498 64
2018-06-18 09:06:42 GMT 54.127899 -4.906180 39,000 124 500 0
2018-06-18 09:06:39 GMT 54.130737 -4.912537 39,000 124 498 0
2018-06-18 09:06:36 GMT 54.134758 -4.922279 39,000 124 499 -64
2018-06-18 09:06:33 GMT 54.138290 -4.931998 39,000 124 499 0
2018-06-18 09:06:30 GMT 54.142345 -4.941505 39,000 124 499 0
2018-06-18 09:06:27 GMT 54.147793 -4.954592 39,000 124 499 0
2018-06-18 09:06:24 GMT 54.150604 -4.964094 39,000 124 499 0
2018-06-18 09:06:21 GMT 54.154732 -4.973979 39,000 124 499 0
2018-06-18 09:06:18 GMT 54.158661 -4.983634 39,000 124 500 0
2018-06-18 09:06:15 GMT 54.163834 -4.996739 39,000 124 500 0
2018-06-18 09:06:11 GMT 54.166489 -5.002938 39,000 124 500 0
2018-06-18 09:06:08 GMT 54.171490 -5.012916 39,000 124 500 0
2018-06-18 09:06:05 GMT 54.174225 -5.022400 39,000 124 500 0
2018-06-18 09:06:02 GMT 54.179077 -5.032223 39,000 124 500 0
2018-06-18 09:05:59 GMT 54.182785 -5.042018 39,000 124 500 0
2018-06-18 09:05:56 GMT 54.187363 -5.054888 39,000 124 500 0
2018-06-18 09:05:53 GMT 54.190659 -5.061401 39,000 124 500 0
2018-06-18 09:05:50 GMT 54.195045 -5.071241 39,000 124 501 0
2018-06-18 09:05:47 GMT 54.200546 -5.087533 39,000 124 501 -64
2018-06-18 09:05:44 GMT 54.203293 -5.093968 39,000 124 501 0
2018-06-18 09:05:40 GMT 54.207008 -5.103553 39,000 124 501 0
2018-06-18 09:05:37 GMT 54.211716 -5.113508 39,000 124 501 0
2018-06-18 09:05:34 GMT 54.215809 -5.123103 39,000 124 502 -64
2018-06-18 09:05:31 GMT 54.220509 -5.136351 39,025 124 502 0
2018-06-18 09:05:28 GMT 54.223907 -5.142894 39,000 124 502 128
2018-06-18 09:05:25 GMT 54.228840 -5.155819 39,000 124 502 64
2018-06-18 09:05:21 GMT 54.232864 -5.165693 39,000 124 502 64
2018-06-18 09:05:17 GMT 54.238129 -5.178484 39,000 124 502 64
2018-06-18 09:05:14 GMT 54.242706 -5.191825 39,000 124 502 64
2018-06-18 09:05:11 GMT 54.247650 -5.204773 39,000 124 502 0
2018-06-18 09:05:08 GMT 54.251606 -5.214628 39,000 124 502 64
2018-06-18 09:05:05 GMT 54.255375 -5.221091 39,000 124 502 64
2018-06-18 09:05:02 GMT 54.257984 -5.227634 39,000 124 502 64
2018-06-18 09:04:59 GMT 54.263336 -5.240802 39,000 124 502 64
2018-06-18 09:04:56 GMT 54.265339 -5.247183 39,000 124 502 0
2018-06-18 09:04:53 GMT 54.269760 -5.256880 39,000 124 502 64
2018-06-18 09:04:50 GMT 54.273579 -5.266813 39,000 124 502 0
2018-06-18 09:04:46 GMT 54.278419 -5.279846 39,000 124 502 64
2018-06-18 09:04:43 GMT 54.282852 -5.289594 39,000 124 502 64
2018-06-18 09:04:40 GMT 54.286613 -5.299572 39,000 124 502 64
2018-06-18 09:04:37 GMT 54.291733 -5.312472 39,000 124 502 64
2018-06-18 09:04:34 GMT 54.294434 -5.319131 39,000 124 502 128
2018-06-18 09:04:30 GMT 54.299740 -5.332114 39,000 124 503 64
2018-06-18 09:04:27 GMT 54.303818 -5.341940 39,000 124 503 64
2018-06-18 09:04:23 GMT 54.309517 -5.358582 39,000 124 503 64
2018-06-18 09:04:20 GMT 54.313385 -5.368275 39,000 124 503 128
2018-06-18 09:04:17 GMT 54.317616 -5.378224 39,000 124 503 128
2018-06-18 09:04:14 GMT 54.320595 -5.384965 38,975 124 504 0
2018-06-18 09:04:11 GMT 54.324326 -5.394691 39,000 124 504 0
2018-06-18 09:04:08 GMT 54.329498 -5.407939 38,975 124 504 64
2018-06-18 09:04:05 GMT 54.332245 -5.414563 39,000 124 504 0
2018-06-18 09:04:02 GMT 54.336823 -5.427731 39,000 124 504 0
2018-06-18 09:03:59 GMT 54.340668 -5.434274 39,000 124 505 -64
2018-06-18 09:03:56 GMT 54.344742 -5.447522 39,000 124 504 -64
2018-06-18 09:03:53 GMT 54.349365 -5.457126 39,000 124 504 -64
2018-06-18 09:03:49 GMT 54.353348 -5.467152 39,000 124 505 64
2018-06-18 09:03:46 GMT 54.357792 -5.477184 39,000 124 505 0
2018-06-18 09:03:43 GMT 54.361679 -5.487105 39,000 124 505 -64
2018-06-18 09:03:40 GMT 54.364822 -5.496743 39,000 124 504 64
2018-06-18 09:03:37 GMT 54.368958 -5.506897 39,000 124 505 -128
2018-06-18 09:03:33 GMT 54.374969 -5.523376 39,025 124 505 -64
2018-06-18 09:03:30 GMT 54.378323 -5.530118 39,025 124 505 -64
2018-06-18 09:03:26 GMT 54.384201 -5.546319 39,025 124 504 64
2018-06-18 09:03:23 GMT 54.388142 -5.556169 39,025 124 504 64
2018-06-18 09:03:19 GMT 54.393497 -5.569735 39,025 124 504 128
2018-06-18 09:03:15 GMT 54.398392 -5.579601 39,000 124 504 64
2018-06-18 09:03:12 GMT 54.402420 -5.592687 39,000 124 504 64
2018-06-18 09:03:09 GMT 54.407776 -5.605855 39,000 124 505 0
2018-06-18 09:03:06 GMT 54.411026 -5.612721 39,000 124 505 64
2018-06-18 09:03:03 GMT 54.413956 -5.619345 39,000 124 505 64
2018-06-18 09:03:00 GMT 54.417938 -5.629161 39,000 124 505 128
2018-06-18 09:02:57 GMT 54.421051 -5.639137 39,000 124 505 64
2018-06-18 09:02:54 GMT 54.424919 -5.648887 39,000 124 505 0
2018-06-18 09:02:51 GMT 54.428833 -5.659090 39,000 124 505 192
2018-06-18 09:02:48 GMT 54.434280 -5.672338 39,000 124 505 128
2018-06-18 09:02:45 GMT 54.436752 -5.678801 39,000 124 505 128
2018-06-18 09:02:42 GMT 54.441833 -5.692130 39,000 124 505 0
2018-06-18 09:02:38 GMT 54.446007 -5.702071 39,000 123 506 64
2018-06-18 09:02:35 GMT 54.450485 -5.712083 39,000 124 505 64
2018-06-18 09:02:32 GMT 54.454834 -5.725493 39,000 123 506 64
2018-06-18 09:02:29 GMT 54.458576 -5.735363 39,000 123 506 64
2018-06-18 09:02:26 GMT 54.463837 -5.748679 39,000 123 506 0
2018-06-18 09:02:23 GMT 54.466629 -5.755504 39,000 123 507 0
2018-06-18 09:02:19 GMT 54.472031 -5.768488 39,000 123 506 0
2018-06-18 09:02:16 GMT 54.474869 -5.775396 39,000 123 506 0
2018-06-18 09:02:13 GMT 54.480412 -5.788546 39,000 123 506 0
2018-06-18 09:02:10 GMT 54.482971 -5.795371 39,000 123 507 0
2018-06-18 09:02:07 GMT 54.487198 -5.805224 39,000 123 507 0
2018-06-18 09:02:04 GMT 54.491364 -5.818796 39,000 123 506 -64
2018-06-18 09:02:01 GMT 54.495773 -5.828663 39,000 123 507 -64
2018-06-18 09:01:58 GMT 54.498890 -5.835322 39,000 123 507 -64
2018-06-18 09:01:54 GMT 54.506245 -5.855463 39,000 123 507 -64
2018-06-18 09:01:51 GMT 54.508759 -5.861955 39,000 123 507 0
2018-06-18 09:01:48 GMT 54.512157 -5.868863 39,000 123 507 0
2018-06-18 09:01:45 GMT 54.515488 -5.878736 39,000 123 507 0
2018-06-18 09:01:42 GMT 54.519932 -5.888755 39,000 123 507 0
2018-06-18 09:01:38 GMT 54.525192 -5.902238 39,000 123 507 0
2018-06-18 09:01:35 GMT 54.528946 -5.912179 39,000 123 507 0
2018-06-18 09:01:31 GMT 54.534256 -5.925428 39,000 123 507 -64
2018-06-18 09:01:28 GMT 54.538322 -5.935697 39,000 123 507 -64
2018-06-18 09:01:25 GMT 54.541718 -5.945542 39,000 123 506 64
2018-06-18 09:01:22 GMT 54.546249 -5.958871 39,000 123 506 64
2018-06-18 09:01:19 GMT 54.549545 -5.965657 39,000 123 506 64
2018-06-18 09:01:15 GMT 54.555450 -5.982389 39,000 123 506 64
2018-06-18 09:01:11 GMT 54.560165 -5.992557 39,000 123 506 64
2018-06-18 09:01:08 GMT 54.563923 -6.002530 39,000 123 506 64
2018-06-18 09:01:05 GMT 54.567535 -6.012510 39,000 123 506 0
2018-06-18 09:01:02 GMT 54.571793 -6.022422 39,000 123 506 0
2018-06-18 09:00:59 GMT 54.575592 -6.032464 39,000 123 507 0
2018-06-18 09:00:56 GMT 54.580215 -6.046035 39,000 123 506 0
2018-06-18 09:00:52 GMT 54.585014 -6.056047 39,000 123 506 0
2018-06-18 09:00:49 GMT 54.588821 -6.066150 39,000 123 507 -64
2018-06-18 09:00:46 GMT 54.592648 -6.076022 39,000 123 506 0
2018-06-18 09:00:43 GMT 54.596512 -6.086345 39,000 123 506 64
2018-06-18 09:00:40 GMT 54.600002 -6.096330 39,000 123 507 0
2018-06-18 09:00:37 GMT 54.605682 -6.109647 39,000 123 506 0
2018-06-18 09:00:33 GMT 54.610149 -6.123297 39,000 123 506 0
2018-06-18 09:00:29 GMT 54.614822 -6.133279 39,000 123 507 0
2018-06-18 09:00:26 GMT 54.618671 -6.143272 39,000 123 507 0
2018-06-18 09:00:23 GMT 54.622879 -6.153475 39,000 123 506 64
2018-06-18 09:00:20 GMT 54.626072 -6.163497 39,000 123 506 0
2018-06-18 09:00:17 GMT 54.630112 -6.173589 39,000 123 506 -64
2018-06-18 09:00:14 GMT 54.634781 -6.186999 39,000 123 507 -64
2018-06-18 09:00:11 GMT 54.638779 -6.197038 39,000 123 506 64
2018-06-18 09:00:08 GMT 54.642223 -6.203946 39,000 123 506 64
2018-06-18 09:00:05 GMT 54.646557 -6.217180 39,000 123 506 0
2018-06-18 09:00:02 GMT 54.649906 -6.223921 39,000 123 506 0
2018-06-18 08:59:59 GMT 54.653824 -6.233933 39,000 123 506 0
2018-06-18 08:59:56 GMT 54.657124 -6.244229 39,000 123 506 0
2018-06-18 08:59:53 GMT 54.662430 -6.257546 39,000 123 506 64
2018-06-18 08:59:50 GMT 54.665455 -6.264454 39,000 123 506 0
2018-06-18 08:59:47 GMT 54.669571 -6.274486 39,000 123 506 0
2018-06-18 08:59:44 GMT 54.673874 -6.287653 39,000 123 505 0
2018-06-18 08:59:40 GMT 54.678490 -6.297996 39,000 123 506 64
2018-06-18 08:59:37 GMT 54.681793 -6.307849 39,000 123 506 64
2018-06-18 08:59:34 GMT 54.686874 -6.321339 39,000 123 505 64
2018-06-18 08:59:30 GMT 54.692642 -6.334830 39,000 123 505 0
2018-06-18 08:59:27 GMT 54.695160 -6.341777 39,000 123 505 64
2018-06-18 08:59:23 GMT 54.700974 -6.358337 39,000 123 505 64
2018-06-18 08:59:20 GMT 54.705002 -6.368435 39,000 123 505 64
2018-06-18 08:59:17 GMT 54.707840 -6.375221 39,000 123 505 64
2018-06-18 08:59:14 GMT 54.711727 -6.385387 39,000 123 505 64
2018-06-18 08:59:11 GMT 54.716103 -6.398787 39,000 123 505 64
2018-06-18 08:59:08 GMT 54.718643 -6.402283 39,000 123 505 64
2018-06-18 08:59:05 GMT 54.722527 -6.412354 39,000 123 505 128
2018-06-18 08:59:01 GMT 54.729603 -6.432329 39,000 123 505 64
2018-06-18 08:58:58 GMT 54.733200 -6.442431 39,000 123 505 64
2018-06-18 08:58:55 GMT 54.736588 -6.449217 39,000 123 505 64
2018-06-18 08:58:51 GMT 54.741165 -6.462869 39,000 123 504 64
2018-06-18 08:58:48 GMT 54.745712 -6.472945 39,000 123 504 64
2018-06-18 08:58:45 GMT 54.748489 -6.483065 39,000 123 504 128
2018-06-18 08:58:42 GMT 54.753754 -6.496474 39,000 123 504 0
2018-06-18 08:58:39 GMT 54.758652 -6.509723 39,000 123 504 0
2018-06-18 08:58:36 GMT 54.761169 -6.516589 39,000 123 505 0
2018-06-18 08:58:33 GMT 54.764053 -6.523294 39,000 123 505 0
2018-06-18 08:58:30 GMT 54.769089 -6.536704 39,000 123 505 0
2018-06-18 08:58:26 GMT 54.774628 -6.550275 39,000 123 505 0
2018-06-18 08:58:21 GMT 54.779343 -6.563685 39,000 123 505 0
2018-06-18 08:58:18 GMT 54.784332 -6.577175 39,000 123 504 0
2018-06-18 08:58:15 GMT 54.787994 -6.584042 39,000 123 504 0
2018-06-18 08:58:12 GMT 54.792297 -6.597452 39,000 123 504 0
2018-06-18 08:58:09 GMT 54.795639 -6.604237 39,000 123 504 0
2018-06-18 08:58:06 GMT 54.799572 -6.614352 39,000 123 504 0
2018-06-18 08:58:03 GMT 54.803623 -6.627919 39,000 123 504 0
2018-06-18 08:58:00 GMT 54.806320 -6.634660 39,000 123 504 64
2018-06-18 08:57:57 GMT 54.811630 -6.647977 39,000 123 504 0
2018-06-18 08:57:54 GMT 54.813675 -6.651575 39,000 123 504 0
2018-06-18 08:57:51 GMT 54.818298 -6.664904 39,000 123 504 0
2018-06-18 08:57:48 GMT 54.822289 -6.675193 39,000 123 504 0
2018-06-18 08:57:44 GMT 54.827503 -6.688593 39,000 123 504 64
2018-06-18 08:57:41 GMT 54.831116 -6.698671 39,000 123 504 64
2018-06-18 08:57:38 GMT 54.835136 -6.708735 39,000 123 505 0
2018-06-18 08:57:35 GMT 54.838806 -6.718786 39,000 123 505 0
2018-06-18 08:57:32 GMT 54.842773 -6.729043 39,000 123 505 -64
2018-06-18 08:57:29 GMT 54.847893 -6.742526 39,000 123 505 -64
2018-06-18 08:57:26 GMT 54.850452 -6.749600 39,000 123 505 0
2018-06-18 08:57:23 GMT 54.854877 -6.763084 39,000 123 505 0
2018-06-18 08:57:19 GMT 54.858673 -6.773071 39,000 123 505 -64
2018-06-18 08:57:15 GMT 54.864979 -6.790133 39,000 123 505 0
2018-06-18 08:57:12 GMT 54.869614 -6.800133 39,000 123 505 0
2018-06-18 08:57:08 GMT 54.874008 -6.813866 39,000 123 505 0
2018-06-18 08:57:05 GMT 54.877872 -6.823758 39,000 123 505 0
2018-06-18 08:57:02 GMT 54.881317 -6.830750 39,000 123 505 0
2018-06-18 08:56:57 GMT 54.887650 -6.847633 39,000 123 504 0
2018-06-18 08:56:54 GMT 54.892136 -6.861204 39,000 123 504 0
2018-06-18 08:56:50 GMT 54.895748 -6.871282 39,000 123 504 0
2018-06-18 08:56:47 GMT 54.900822 -6.884766 39,000 123 504 64
2018-06-18 08:56:43 GMT 54.906734 -6.898499 39,000 123 504 0
2018-06-18 08:56:40 GMT 54.911251 -6.911899 39,000 123 504 0
2018-06-18 08:56:37 GMT 54.913998 -6.918723 39,000 123 504 0
2018-06-18 08:56:34 GMT 54.916557 -6.925631 39,000 123 504 0
2018-06-18 08:56:30 GMT 54.922668 -6.942228 39,000 123 504 0
2018-06-18 08:56:27 GMT 54.925140 -6.949256 39,000 122 503 0
2018-06-18 08:56:24 GMT 54.929173 -6.959256 39,000 122 503 0
2018-06-18 08:56:21 GMT 54.932968 -6.969452 39,000 122 503 0
2018-06-18 08:56:18 GMT 54.937271 -6.979792 39,000 122 503 0
2018-06-18 08:56:14 GMT 54.943085 -6.996514 39,000 122 503 -64
2018-06-18 08:56:09 GMT 54.949749 -7.013439 39,000 122 503 0
2018-06-18 08:56:06 GMT 54.952652 -7.023576 39,000 122 503 0
2018-06-18 08:56:02 GMT 54.957336 -7.033747 39,000 122 503 0
2018-06-18 08:55:59 GMT 54.961029 -7.043933 39,000 122 503 0
2018-06-18 08:55:56 GMT 54.965019 -7.054221 39,000 122 503 0
2018-06-18 08:55:53 GMT 54.968262 -7.064290 39,000 122 503 64
2018-06-18 08:55:49 GMT 54.974979 -7.081354 39,000 122 503 0
2018-06-18 08:55:46 GMT 54.977493 -7.088096 39,000 122 503 64
2018-06-18 08:55:43 GMT 54.981544 -7.101746 39,000 122 503 0
2018-06-18 08:55:40 GMT 54.985519 -7.112032 39,000 122 503 64
2018-06-18 08:55:37 GMT 54.989365 -7.122054 39,000 122 503 128
2018-06-18 08:55:33 GMT 54.994301 -7.135703 39,000 122 503 64
2018-06-18 08:55:30 GMT 54.998199 -7.145799 39,000 122 502 64
2018-06-18 08:55:26 GMT 55.002495 -7.156011 39,000 122 502 0
2018-06-18 08:55:23 GMT 55.007660 -7.169495 39,000 122 502 0
2018-06-18 08:55:18 GMT 55.012081 -7.183144 39,000 122 502 -64
2018-06-18 08:55:15 GMT 55.015915 -7.193460 39,000 122 502 -64
2018-06-18 08:55:12 GMT 55.020138 -7.203536 39,000 122 502 -64
2018-06-18 08:55:08 GMT 55.024418 -7.217185 39,000 122 502 0
2018-06-18 08:55:05 GMT 55.028275 -7.227227 39,000 122 502 64
2018-06-18 08:55:02 GMT 55.032890 -7.237660 39,000 122 502 128
2018-06-18 08:54:58 GMT 55.037083 -7.251060 39,000 122 502 128
2018-06-18 08:54:55 GMT 55.041550 -7.261397 39,000 122 502 64
2018-06-18 08:54:52 GMT 55.046814 -7.274969 39,000 122 502 0
2018-06-18 08:54:48 GMT 55.050583 -7.285184 39,000 122 502 128
2018-06-18 08:54:45 GMT 55.054459 -7.295487 39,000 122 502 64
2018-06-18 08:54:41 GMT 55.059082 -7.308897 39,000 122 502 0
2018-06-18 08:54:38 GMT 55.063011 -7.319142 39,000 122 502 64
2018-06-18 08:54:34 GMT 55.067478 -7.332875 39,000 122 503 0
2018-06-18 08:54:31 GMT 55.073254 -7.346358 39,000 122 502 128
2018-06-18 08:54:27 GMT 55.076523 -7.356558 39,000 122 502 128
2018-06-18 08:54:23 GMT 55.082062 -7.370130 39,000 122 502 64
2018-06-18 08:54:20 GMT 55.085728 -7.380482 39,000 122 502 64
2018-06-18 08:54:17 GMT 55.088974 -7.390648 39,000 122 502 64
2018-06-18 08:54:13 GMT 55.094711 -7.407615 39,000 122 502 64
2018-06-18 08:54:10 GMT 55.098953 -7.417791 39,000 122 502 64
2018-06-18 08:54:07 GMT 55.101929 -7.424819 39,000 122 503 0
2018-06-18 08:54:03 GMT 55.107147 -7.438310 39,000 122 502 64
2018-06-18 08:54:00 GMT 55.110821 -7.448398 39,000 122 503 64
2018-06-18 08:53:57 GMT 55.113693 -7.458909 39,000 122 503 64
2018-06-18 08:53:53 GMT 55.119415 -7.472480 39,000 122 503 0
2018-06-18 08:53:50 GMT 55.123112 -7.482605 39,000 122 503 0
2018-06-18 08:53:47 GMT 55.126419 -7.492918 39,000 122 503 0
2018-06-18 08:53:43 GMT 55.132328 -7.510154 39,000 122 503 0
2018-06-18 08:53:40 GMT 55.135075 -7.516896 39,000 122 503 0
2018-06-18 08:53:37 GMT 55.140846 -7.530545 39,000 122 503 -64
2018-06-18 08:53:31 GMT 55.146194 -7.547527 39,000 122 503 64
2018-06-18 08:53:28 GMT 55.151825 -7.561260 39,000 122 503 0
2018-06-18 08:53:24 GMT 55.155323 -7.571494 39,000 122 503 0
2018-06-18 08:53:19 GMT 55.161118 -7.588725 39,000 122 503 64
2018-06-18 08:53:15 GMT 55.167988 -7.605868 39,000 122 502 64
2018-06-18 08:53:12 GMT 55.171234 -7.616030 39,000 122 503 0
2018-06-18 08:53:09 GMT 55.173706 -7.622896 39,000 122 504 0
2018-06-18 08:53:05 GMT 55.178650 -7.636629 39,000 122 504 0
2018-06-18 08:53:02 GMT 55.183022 -7.646734 39,000 122 503 0
2018-06-18 08:52:59 GMT 55.186478 -7.657148 39,000 122 504 0
2018-06-18 08:52:55 GMT 55.191742 -7.670880 39,000 122 504 0
2018-06-18 08:52:52 GMT 55.195824 -7.681025 39,000 122 504 -64
2018-06-18 08:52:49 GMT 55.199615 -7.691399 39,000 122 504 0
2018-06-18 08:52:45 GMT 55.205647 -7.708740 39,000 122 505 64
2018-06-18 08:52:42 GMT 55.207649 -7.715482 39,000 122 506 64
2018-06-18 08:52:39 GMT 55.212067 -7.725651 39,000 122 507 0
2018-06-18 08:52:34 GMT 55.217751 -7.743197 39,000 122 507 -64
2018-06-18 08:52:31 GMT 55.222637 -7.757097 39,000 122 510 64
2018-06-18 08:52:28 GMT 55.225201 -7.763838 39,000 122 509 64
2018-06-18 08:52:23 GMT 55.233440 -7.784812 39,000 122 510 64
2018-06-18 08:52:18 GMT 55.238094 -7.798712 39,000 122 510 128
2018-06-18 08:52:12 GMT 55.246674 -7.823154 39,000 122 511 0
2018-06-18 08:52:08 GMT 55.250664 -7.833585 39,000 122 512 0
2018-06-18 08:52:05 GMT 55.255737 -7.847567 39,000 122 513 -64
2018-06-18 08:52:01 GMT 55.259995 -7.858052 39,000 122 517 64
2018-06-18 08:51:58 GMT 55.263744 -7.868708 39,000 122 515 64
2018-06-18 08:51:54 GMT 55.268261 -7.882690 39,000 122 517 64
2018-06-18 08:51:49 GMT 55.274963 -7.900624 39,000 122 519 256
2018-06-18 08:51:46 GMT 55.278084 -7.911155 39,000 122 519 256
2018-06-18 08:51:41 GMT 55.284576 -7.928898 38,975 122 522 64
2018-06-18 08:51:38 GMT 55.289303 -7.939536 39,000 122 523 -64
2018-06-18 08:51:35 GMT 55.293446 -7.954102 39,000 122 525 0
2018-06-18 08:51:32 GMT 55.296936 -7.961343 39,000 122 526 0
2018-06-18 08:51:29 GMT 55.302010 -7.975825 39,000 122 526 0
2018-06-18 08:51:26 GMT 55.304153 -7.982899 39,000 122 527 -64
2018-06-18 08:51:22 GMT 55.311676 -8.001117 39,000 122 528 0
2018-06-18 08:51:19 GMT 55.312866 -8.008225 39,000 122 529 64
2018-06-18 08:51:16 GMT 55.317837 -8.019187 39,000 121 529 64
2018-06-18 08:51:10 GMT 55.325706 -8.040827 39,000 122 530 0
2018-06-18 08:51:06 GMT 55.330360 -8.055642 39,000 122 529 -64
2018-06-18 08:51:02 GMT 55.336258 -8.073578 39,000 122 529 64
2018-06-18 08:50:58 GMT 55.341476 -8.088199 39,000 122 529 64
2018-06-18 08:50:55 GMT 55.345139 -8.095551 39,000 122 529 -64
2018-06-18 08:50:52 GMT 55.349030 -8.106412 39,000 122 529 0
2018-06-18 08:50:45 GMT 55.357040 -8.131822 39,000 122 529 0
2018-06-18 08:50:42 GMT 55.360992 -8.142867 39,000 122 529 -64
2018-06-18 08:50:38 GMT 55.368210 -8.160984 39,000 122 529 64
2018-06-18 08:50:35 GMT 55.370087 -8.168416 39,000 122 529 0
2018-06-18 08:50:32 GMT 55.374771 -8.179072 39,000 122 529 0
2018-06-18 08:50:28 GMT 55.381119 -8.197497 39,000 121 529 64
2018-06-18 08:50:25 GMT 55.383636 -8.204687 39,000 121 529 64
2018-06-18 08:50:22 GMT 55.387619 -8.215443 39,000 121 529 64
2018-06-18 08:50:18 GMT 55.392788 -8.230091 39,000 121 529 64
2018-06-18 08:50:14 GMT 55.397305 -8.244573 39,000 121 529 64
2018-06-18 08:50:11 GMT 55.402176 -8.255822 39,000 121 529 64
2018-06-18 08:50:08 GMT 55.406101 -8.266796 39,000 121 529 0
2018-06-18 08:50:04 GMT 55.411037 -8.281028 39,000 121 529 64
2018-06-18 08:50:01 GMT 55.414902 -8.291931 39,000 121 529 0
2018-06-18 08:49:58 GMT 55.419090 -8.303084 39,000 121 529 0
2018-06-18 08:49:55 GMT 55.423977 -8.317566 39,000 121 529 64
2018-06-18 08:49:52 GMT 55.427765 -8.328606 39,000 121 529 64
2018-06-18 08:49:44 GMT 55.438686 -8.361262 39,000 121 528 64
2018-06-18 08:49:37 GMT 55.445663 -8.379572 39,000 121 528 64
2018-06-18 08:49:34 GMT 55.449440 -8.390636 39,000 121 528 0
2018-06-18 08:49:31 GMT 55.453491 -8.401462 39,000 121 528 64
2018-06-18 08:49:27 GMT 55.459728 -8.419819 39,000 121 528 0
2018-06-18 08:49:22 GMT 55.464336 -8.434324 39,000 121 528 -64
2018-06-18 08:49:18 GMT 55.469692 -8.449173 39,000 121 528 -64
2018-06-18 08:49:13 GMT 55.476517 -8.467379 39,000 121 528 64
2018-06-18 08:49:09 GMT 55.481506 -8.481945 39,000 121 528 64
2018-06-18 08:49:02 GMT 55.492355 -8.511075 39,000 121 528 -64
2018-06-18 08:48:58 GMT 55.495575 -8.521957 39,000 121 528 0
2018-06-18 08:48:53 GMT 55.502106 -8.540206 39,000 121 526 64
2018-06-18 08:48:50 GMT 55.506001 -8.551311 39,000 121 528 0
2018-06-18 08:48:45 GMT 55.513451 -8.573284 39,000 121 527 0
2018-06-18 08:48:42 GMT 55.515919 -8.580580 39,000 121 527 0
2018-06-18 08:48:39 GMT 55.519958 -8.591475 39,000 121 527 0
2018-06-18 08:48:33 GMT 55.528908 -8.617144 39,000 121 527 64
2018-06-18 08:48:28 GMT 55.533653 -8.631735 39,000 121 527 64
2018-06-18 08:48:22 GMT 55.542034 -8.653536 39,000 121 527 0
2018-06-18 08:48:19 GMT 55.547062 -8.668213 39,000 121 527 0
2018-06-18 08:48:12 GMT 55.554649 -8.690271 39,000 121 527 64
2018-06-18 08:48:07 GMT 55.561817 -8.711987 39,000 121 527 64
2018-06-18 08:47:59 GMT 55.570999 -8.737543 39,000 121 527 0
2018-06-18 08:47:56 GMT 55.574669 -8.748808 39,000 121 527 0
2018-06-18 08:47:51 GMT 55.581848 -8.766923 39,000 121 526 64
2018-06-18 08:47:47 GMT 55.586243 -8.781655 39,000 121 526 0
2018-06-18 08:47:44 GMT 55.589844 -8.792753 39,000 121 526 0
2018-06-18 08:47:41 GMT 55.594254 -8.803711 39,000 121 526 0
2018-06-18 08:47:36 GMT 55.601898 -8.825684 39,000 121 526 64
2018-06-18 08:47:31 GMT 55.607300 -8.840166 39,000 121 526 64
2018-06-18 08:47:28 GMT 55.610558 -8.851032 39,000 121 526 64
2018-06-18 08:47:22 GMT 55.620335 -8.880386 39,000 121 526 0
2018-06-18 08:47:18 GMT 55.623825 -8.887854 39,000 121 526 128
2018-06-18 08:47:15 GMT 55.629089 -8.902671 39,000 121 526 64
2018-06-18 08:47:10 GMT 55.632950 -8.917208 39,000 121 526 64
2018-06-18 08:47:07 GMT 55.637833 -8.928056 39,000 121 526 0
2018-06-18 08:47:04 GMT 55.642227 -8.942871 39,000 121 526 0
2018-06-18 08:47:00 GMT 55.645939 -8.953686 39,000 121 526 0
2018-06-18 08:46:56 GMT 55.651104 -8.968706 39,000 121 526 64
2018-06-18 08:46:53 GMT 55.654770 -8.979742 39,000 121 526 64
2018-06-18 08:46:48 GMT 55.661720 -8.998060 39,000 121 526 64
2018-06-18 08:46:44 GMT 55.668655 -9.019775 39,000 121 526 64
2018-06-18 08:46:40 GMT 55.671776 -9.027328 39,000 121 526 64
2018-06-18 08:46:36 GMT 55.677979 -9.045660 39,000 121 526 0
2018-06-18 08:46:33 GMT 55.681271 -9.056511 39,000 121 526 0
2018-06-18 08:46:29 GMT 55.685120 -9.067633 39,000 121 526 0
2018-06-18 08:46:25 GMT 55.690704 -9.082281 39,000 121 526 64
2018-06-18 08:46:22 GMT 55.695190 -9.097262 39,000 121 526 64
2018-06-18 08:46:19 GMT 55.698486 -9.104254 39,000 121 526 64
2018-06-18 08:46:12 GMT 55.706921 -9.130068 39,000 121 526 0
2018-06-18 08:46:08 GMT 55.712181 -9.145088 39,000 121 527 64
2018-06-18 08:45:59 GMT 55.724426 -9.181652 39,000 121 526 64
2018-06-18 08:45:51 GMT 55.733459 -9.207458 39,000 121 526 0
2018-06-18 08:45:47 GMT 55.738266 -9.222273 39,000 121 526 0
2018-06-18 08:45:41 GMT 55.746632 -9.248257 39,000 121 526 128
2018-06-18 08:45:37 GMT 55.750854 -9.259311 39,000 121 526 64
2018-06-18 08:45:30 GMT 55.759712 -9.285250 39,000 121 526 64
2018-06-18 08:45:27 GMT 55.763443 -9.296181 39,000 121 526 0
2018-06-18 08:45:18 GMT 55.775620 -9.333219 39,000 121 526 64
2018-06-18 08:45:14 GMT 55.779591 -9.344130 39,000 121 526 0
2018-06-18 08:45:07 GMT 55.789597 -9.373913 39,000 121 526 0
2018-06-18 08:44:58 GMT 55.800072 -9.403353 39,000 120 525 128
2018-06-18 08:44:55 GMT 55.803085 -9.414534 39,000 121 526 0
2018-06-18 08:44:48 GMT 55.811943 -9.440260 39,000 120 525 128
2018-06-18 08:44:45 GMT 55.815720 -9.451488 39,000 120 525 64
2018-06-18 08:44:36 GMT 55.826935 -9.484634 39,000 120 525 64
2018-06-18 08:44:32 GMT 55.832054 -9.499569 39,000 120 525 64
2018-06-18 08:44:27 GMT 55.838654 -9.517989 39,000 120 525 64
2018-06-18 08:44:24 GMT 55.842388 -9.528923 39,000 120 525 64
2018-06-18 08:44:21 GMT 55.845612 -9.540045 39,000 120 525 64
2018-06-18 08:44:15 GMT 55.853943 -9.562184 39,000 120 525 0
2018-06-18 08:44:04 GMT 55.867805 -9.603252 39,000 120 525 0
2018-06-18 08:43:55 GMT 55.878067 -9.636508 39,000 120 525 0
2018-06-18 08:43:52 GMT 55.882519 -9.647455 39,000 120 525 0
2018-06-18 08:43:43 GMT 55.894062 -9.684362 39,000 120 525 0
2018-06-18 08:43:33 GMT 55.905853 -9.718073 39,000 120 525 64
2018-06-18 08:43:27 GMT 55.913589 -9.740129 39,000 120 525 64
2018-06-18 08:43:24 GMT 55.916733 -9.751396 39,000 120 525 64
2018-06-18 08:43:21 GMT 55.921188 -9.762435 39,000 120 524 64
2018-06-18 08:43:13 GMT 55.930756 -9.792231 39,000 120 525 0
2018-06-18 08:43:07 GMT 55.938354 -9.814287 39,000 120 525 0
2018-06-18 08:43:01 GMT 55.944855 -9.836925 39,000 120 525 0
2018-06-18 08:42:54 GMT 55.955109 -9.866388 39,000 120 525 0
2018-06-18 08:42:50 GMT 55.959236 -9.877567 39,000 120 525 128
2018-06-18 08:42:43 GMT 55.968731 -9.907694 39,000 119 527 64
2018-06-18 08:42:40 GMT 55.971336 -9.915161 39,000 119 527 0
2018-06-18 08:42:33 GMT 55.979599 -9.941711 39,000 118 530 64
2018-06-18 08:42:30 GMT 55.983162 -9.953270 39,000 117 531 0
2018-06-18 08:42:23 GMT 55.991589 -9.984255 39,000 116 533 64
2018-06-18 08:42:20 GMT 55.994427 -9.992151 39,000 116 533 64
2018-06-18 08:42:10 GMT 56.005695 -10.031633 39,000 115 536 128
2018-06-18 08:42:02 GMT 56.013515 -10.063906 39,000 114 538 0
2018-06-18 08:41:58 GMT 56.017567 -10.079784 39,000 113 538 128
2018-06-18 08:41:52 GMT 56.024036 -10.104160 39,000 112 541 0
2018-06-18 08:41:48 GMT 56.027435 -10.120640 39,000 112 540 0
2018-06-18 08:41:39 GMT 56.036728 -10.157693 39,000 112 541 64
2018-06-18 08:41:32 GMT 56.043823 -10.190901 39,000 112 541 -64
2018-06-18 08:41:29 GMT 56.045654 -10.199224 39,000 112 541 -64
2018-06-18 08:41:19 GMT 56.055771 -10.240340 39,000 112 541 128
2018-06-18 08:41:12 GMT 56.061977 -10.269213 39,000 112 541 -128
2018-06-18 08:41:07 GMT 56.067375 -10.293932 39,025 112 541 192
2018-06-18 08:40:58 GMT 56.076141 -10.331227 39,000 112 542 0
2018-06-18 08:40:48 GMT 56.086029 -10.372675 39,000 112 542 192
2018-06-18 08:40:45 GMT 56.089115 -10.385170 39,000 112 543 64
2018-06-18 08:40:40 GMT 56.092606 -10.401735 39,000 112 543 -64
2018-06-18 08:40:36 GMT 56.096844 -10.418558 39,000 112 543 64
2018-06-18 08:40:30 GMT 56.102474 -10.443277 39,000 112 543 128
2018-06-18 08:40:26 GMT 56.106766 -10.464061 39,000 112 544 -64
2018-06-18 08:40:19 GMT 56.112076 -10.488947 39,000 112 544 0
2018-06-18 08:40:14 GMT 56.117233 -10.509710 39,000 112 543 128
2018-06-18 08:40:05 GMT 56.127365 -10.555614 39,000 112 544 -128
2018-06-18 08:39:59 GMT 56.131485 -10.572094 39,000 112 544 -64
2018-06-18 08:39:53 GMT 56.137436 -10.597229 39,000 112 544 128
2018-06-18 08:39:49 GMT 56.141281 -10.614125 39,000 112 544 128
2018-06-18 08:39:44 GMT 56.146866 -10.639094 38,975 112 545 64
2018-06-18 08:39:33 GMT 56.157455 -10.684891 39,000 112 545 320
2018-06-18 08:39:22 GMT 56.166904 -10.726690 38,975 112 545 -448
2018-06-18 08:39:15 GMT 56.173737 -10.755865 39,000 111 545 128
2018-06-18 08:39:12 GMT 56.176804 -10.772844 39,000 111 545 0
2018-06-18 08:39:01 GMT 56.187153 -10.818872 39,000 112 546 -64
2018-06-18 08:38:50 GMT 56.197025 -10.860844 39,000 111 547 64
2018-06-18 08:38:40 GMT 56.206924 -10.907177 39,000 111 547 128
2018-06-18 08:38:30 GMT 56.216629 -10.949291 39,000 111 547 128
2018-06-18 08:38:19 GMT 56.226768 -10.995598 39,000 111 547 0
2018-06-18 08:38:11 GMT 56.233521 -11.025030 39,025 111 547 0
2018-06-18 08:38:08 GMT 56.236359 -11.037912 39,025 111 547 0
2018-06-18 08:37:53 GMT 56.250595 -11.101019 39,000 111 547 0
2018-06-18 08:37:44 GMT 56.258472 -11.138935 39,000 111 547 64
2018-06-18 08:37:37 GMT 56.265884 -11.168685 39,000 111 547 0
2018-06-18 08:37:26 GMT 56.276367 -11.219039 39,000 111 547 0
2018-06-18 08:37:18 GMT 56.283005 -11.248627 39,000 111 547 64
2018-06-18 08:37:15 GMT 56.285614 -11.261486 39,000 111 547 64
2018-06-18 08:37:09 GMT 56.291336 -11.286871 39,000 111 547 64
2018-06-18 08:37:03 GMT 56.297714 -11.316175 39,000 111 547 -64
2018-06-18 08:36:59 GMT 56.300354 -11.328902 39,000 111 547 0
2018-06-18 08:36:54 GMT 56.305210 -11.350079 39,000 111 546 0
2018-06-18 08:36:49 GMT 56.309967 -11.371099 39,000 111 546 64
2018-06-18 08:36:45 GMT 56.315033 -11.392565 39,000 111 546 0
2018-06-18 08:36:39 GMT 56.319443 -11.413546 39,000 111 546 -64
2018-06-18 08:36:33 GMT 56.325417 -11.443033 39,000 111 547 -64
2018-06-18 08:36:28 GMT 56.329140 -11.460371 39,000 111 547 0
2018-06-18 08:36:23 GMT 56.334911 -11.485691 39,025 111 547 0
2018-06-18 08:36:18 GMT 56.338589 -11.502428 39,025 111 547 64
2018-06-18 08:36:12 GMT 56.344643 -11.528091 39,000 111 547 256
2018-06-18 08:36:08 GMT 56.347759 -11.544914 39,000 111 548 64
2018-06-18 08:36:02 GMT 56.354233 -11.574929 38,975 111 549 128
2018-06-18 08:35:58 GMT 56.357445 -11.587572 39,000 111 549 -64
2018-06-18 08:35:51 GMT 56.363754 -11.617210 39,000 111 549 192
2018-06-18 08:35:48 GMT 56.366707 -11.629887 39,000 111 550 128
2018-06-18 08:35:41 GMT 56.373642 -11.664133 39,000 111 550 64
2018-06-18 08:35:37 GMT 56.376434 -11.676719 39,000 111 550 -256
2018-06-18 08:35:30 GMT 56.383095 -11.706705 39,025 111 549 64
2018-06-18 08:35:27 GMT 56.385681 -11.719749 39,025 111 549 192
2018-06-18 08:35:19 GMT 56.392593 -11.753623 39,000 111 550 64
2018-06-18 08:35:09 GMT 56.402390 -11.796320 39,000 111 549 192
2018-06-18 08:35:04 GMT 56.406788 -11.817598 39,000 111 549 0
2018-06-18 08:34:58 GMT 56.412468 -11.843262 39,000 111 550 64
2018-06-18 08:34:55 GMT 56.414566 -11.856162 39,000 111 550 64
2018-06-18 08:34:49 GMT 56.422394 -11.890619 39,000 111 550 0
2018-06-18 08:34:45 GMT 56.424225 -11.899109 39,000 111 550 -64
2018-06-18 08:34:37 GMT 56.431366 -11.933483 39,000 110 551 -128
2018-06-18 08:34:34 GMT 56.434067 -11.946259 39,000 110 551 -64
2018-06-18 08:34:28 GMT 56.440750 -11.976096 39,000 110 551 64
2018-06-18 08:34:25 GMT 56.442764 -11.984669 39,000 110 551 192
2018-06-18 08:34:17 GMT 56.450405 -12.023420 39,000 110 551 128
2018-06-18 08:34:14 GMT 56.452225 -12.031918 39,000 110 551 128
2018-06-18 08:34:06 GMT 56.460388 -12.070729 39,000 110 551 64
We lost coverage of the aircraft here for a total of 319 minutes
2018-06-18 03:14:47 GMT 48.496819 -92.799637 35,000 55 596 0
2018-06-18 03:14:30 GMT 48.470352 -92.857643 35,000 54 597 0
2018-06-18 03:14:22 GMT 48.458084 -92.884689 35,000 55 598 -128
2018-06-18 03:14:01 GMT 48.426041 -92.952995 35,000 54 599 64
2018-06-18 03:13:51 GMT 48.408741 -92.990669 35,000 55 600 64
2018-06-18 03:13:43 GMT 48.396030 -93.017845 35,000 54 600 0
2018-06-18 03:13:32 GMT 48.380016 -93.052101 35,000 54 600 128
2018-06-18 03:13:21 GMT 48.361725 -93.089485 35,000 54 601 -64
2018-06-18 03:13:12 GMT 48.346687 -93.120331 35,000 54 602 -64
2018-06-18 03:13:02 GMT 48.330002 -93.157799 35,000 54 602 -64
2018-06-18 03:12:51 GMT 48.312927 -93.192093 35,000 54 602 64
2018-06-18 03:12:41 GMT 48.296272 -93.229477 35,000 54 603 0
2018-06-18 03:12:30 GMT 48.279186 -93.263733 35,000 54 603 0
2018-06-18 03:12:19 GMT 48.262894 -93.301178 35,000 54 603 64
2018-06-18 03:12:09 GMT 48.246094 -93.335480 35,000 54 602 -64
2018-06-18 03:11:58 GMT 48.228165 -93.372658 35,000 54 603 0
2018-06-18 03:11:49 GMT 48.211826 -93.406700 35,000 54 603 0
2018-06-18 03:11:37 GMT 48.195007 -93.444214 35,000 54 603 -64
2018-06-18 03:11:28 GMT 48.178391 -93.478157 35,000 54 603 0
2018-06-18 03:11:16 GMT 48.160572 -93.515625 35,000 54 603 0
2018-06-18 03:11:06 GMT 48.144695 -93.549637 35,000 54 603 0
2018-06-18 03:10:56 GMT 48.127659 -93.583656 35,000 54 602 0
2018-06-18 03:10:46 GMT 48.109726 -93.620750 35,000 54 602 -64
2018-06-18 03:10:35 GMT 48.093887 -93.654465 35,000 54 602 0
2018-06-18 03:10:25 GMT 48.076824 -93.691757 35,000 54 602 0
2018-06-18 03:10:14 GMT 48.060017 -93.725700 35,000 54 602 0
2018-06-18 03:10:04 GMT 48.043121 -93.759293 35,000 54 602 -64
2018-06-18 03:09:52 GMT 48.024826 -93.799934 35,000 54 601 0
2018-06-18 03:09:42 GMT 48.008717 -93.833450 35,000 54 601 -64
2018-06-18 03:09:32 GMT 47.991772 -93.867188 35,000 54 601 0
2018-06-18 03:09:25 GMT 47.979858 -93.890808 35,000 54 601 64
2018-06-18 03:09:19 GMT 47.970154 -93.910927 35,000 54 601 -128
2018-06-18 03:09:10 GMT 47.955742 -93.941132 35,000 54 601 64
2018-06-18 03:09:00 GMT 47.938705 -93.978012 35,000 54 601 0
2018-06-18 03:08:50 GMT 47.923248 -94.008461 35,000 54 601 64
2018-06-18 03:08:39 GMT 47.904442 -94.048531 35,000 54 601 0
2018-06-18 03:08:28 GMT 47.886703 -94.085335 35,000 54 601 -64
2018-06-18 03:08:18 GMT 47.870316 -94.118980 35,000 54 600 0
2018-06-18 03:08:08 GMT 47.852875 -94.152420 35,000 54 601 0
2018-06-18 03:07:57 GMT 47.836670 -94.185654 35,000 54 600 0
2018-06-18 03:07:47 GMT 47.819111 -94.222549 35,000 54 600 0
2018-06-18 03:07:36 GMT 47.803802 -94.259193 35,000 54 600 0
2018-06-18 03:07:25 GMT 47.785355 -94.292633 35,000 53 599 0
2018-06-18 03:07:15 GMT 47.767670 -94.328964 35,000 53 599 0
2018-06-18 03:07:05 GMT 47.750912 -94.362488 35,000 53 600 0
2018-06-18 03:06:54 GMT 47.733734 -94.395660 35,000 53 600 0
2018-06-18 03:06:49 GMT 47.725075 -94.415588 35,000 53 600 0
2018-06-18 03:06:44 GMT 47.716370 -94.432228 35,000 53 600 0
2018-06-18 03:06:33 GMT 47.699844 -94.465462 35,000 53 600 0
2018-06-18 03:06:23 GMT 47.681919 -94.501862 35,000 53 600 0
2018-06-18 03:06:12 GMT 47.664505 -94.538383 35,000 53 600 0
2018-06-18 03:06:02 GMT 47.647156 -94.571480 35,000 53 599 0
2018-06-18 03:05:50 GMT 47.630386 -94.607712 35,000 53 598 0
2018-06-18 03:05:40 GMT 47.613537 -94.640945 35,000 53 598 0
2018-06-18 03:05:30 GMT 47.596359 -94.673981 35,000 53 598 0
2018-06-18 03:05:19 GMT 47.575974 -94.716980 35,000 53 598 0
2018-06-18 03:05:08 GMT 47.560371 -94.746590 35,000 53 598 0
2018-06-18 03:04:58 GMT 47.543896 -94.779266 35,000 53 599 0
2018-06-18 03:04:48 GMT 47.525940 -94.815651 35,000 53 599 -64
2018-06-18 03:04:36 GMT 47.508141 -94.851875 35,000 53 599 -64
2018-06-18 03:04:31 GMT 47.499847 -94.868179 35,000 53 599 0
2018-06-18 03:04:27 GMT 47.490143 -94.887886 35,000 53 599 -64
2018-06-18 03:04:23 GMT 47.485004 -94.897789 35,000 53 599 0
2018-06-18 03:04:13 GMT 47.471180 -94.924271 35,000 53 598 0
2018-06-18 03:04:04 GMT 47.455399 -94.956879 35,000 53 598 0
2018-06-18 03:03:55 GMT 47.438824 -94.989838 35,000 53 599 0
2018-06-18 03:03:51 GMT 47.434433 -94.999535 35,000 53 599 0
2018-06-18 03:03:45 GMT 47.424820 -95.019310 35,000 53 599 0
2018-06-18 03:03:42 GMT 47.418434 -95.029205 35,000 53 599 0
2018-06-18 03:03:34 GMT 47.404129 -95.058655 35,000 53 598 0
2018-06-18 03:03:22 GMT 47.386639 -95.094345 35,000 53 598 -64
2018-06-18 03:03:13 GMT 47.369415 -95.127090 35,000 53 598 0
2018-06-18 03:03:01 GMT 47.351303 -95.162888 35,000 53 597 0
2018-06-18 03:02:52 GMT 47.334869 -95.195709 35,000 53 597 0
2018-06-18 03:02:41 GMT 47.317463 -95.231323 35,000 53 597 -64
2018-06-18 03:02:30 GMT 47.299587 -95.264137 35,000 53 597 0
2018-06-18 03:02:20 GMT 47.283295 -95.296745 35,000 53 597 -64
2018-06-18 03:02:12 GMT 47.268265 -95.326035 35,000 53 597 64
2018-06-18 03:02:09 GMT 47.264858 -95.332596 35,000 53 597 0
2018-06-18 03:01:59 GMT 47.247681 -95.368088 35,000 53 597 0
2018-06-18 03:01:49 GMT 47.230087 -95.400742 35,000 53 597 0
2018-06-18 03:01:45 GMT 47.224125 -95.413582 35,000 53 597 -64
2018-06-18 03:01:40 GMT 47.215576 -95.429924 35,000 53 597 0
2018-06-18 03:01:36 GMT 47.209351 -95.442833 35,000 53 597 0
2018-06-18 03:01:29 GMT 47.198338 -95.465630 35,000 53 597 0
2018-06-18 03:01:25 GMT 47.192505 -95.475380 35,000 53 597 0
2018-06-18 03:01:19 GMT 47.181347 -95.497810 35,000 53 597 -64
2018-06-18 03:01:16 GMT 47.178413 -95.504501 35,000 53 597 0
2018-06-18 03:01:06 GMT 47.159912 -95.539925 35,000 53 597 0
2018-06-18 03:01:02 GMT 47.154251 -95.549713 35,000 53 597 0
2018-06-18 03:00:58 GMT 47.146545 -95.565948 35,000 53 597 0
2018-06-18 03:00:53 GMT 47.138657 -95.582039 35,000 53 597 0
2018-06-18 03:00:46 GMT 47.125626 -95.604881 35,000 53 597 0
2018-06-18 03:00:43 GMT 47.123016 -95.611267 35,000 53 597 0
2018-06-18 03:00:37 GMT 47.111515 -95.633942 35,000 52 597 -64
2018-06-18 03:00:33 GMT 47.104439 -95.646759 35,000 52 597 0
2018-06-18 03:00:24 GMT 47.089783 -95.676086 35,000 52 597 0
2018-06-18 03:00:21 GMT 47.086533 -95.682404 35,000 52 597 0
2018-06-18 03:00:16 GMT 47.076553 -95.701767 35,000 52 597 0
2018-06-18 03:00:13 GMT 47.072433 -95.708427 35,000 52 598 0
2018-06-18 03:00:03 GMT 47.054585 -95.743950 35,000 52 597 -64
2018-06-18 03:00:00 GMT 47.051464 -95.750282 35,000 52 597 0
2018-06-18 02:59:51 GMT 47.034191 -95.782471 35,000 52 596 0
2018-06-18 02:59:44 GMT 47.024090 -95.801910 35,000 52 597 0
2018-06-18 02:59:40 GMT 47.017433 -95.814796 35,000 52 597 0
2018-06-18 02:59:34 GMT 47.006287 -95.837311 35,000 52 597 0
2018-06-18 02:59:30 GMT 47.000427 -95.850220 35,000 52 597 0
2018-06-18 02:59:21 GMT 46.986282 -95.875832 35,000 52 597 -64
2018-06-18 02:59:18 GMT 46.982162 -95.882286 35,000 52 597 -64
2018-06-18 02:59:13 GMT 46.970928 -95.904732 35,000 52 597 -64
2018-06-18 02:59:09 GMT 46.965248 -95.917618 35,000 52 597 -64
2018-06-18 02:59:01 GMT 46.951702 -95.943253 35,000 52 596 0
2018-06-18 02:58:57 GMT 46.946686 -95.952873 35,000 52 596 0
2018-06-18 02:58:51 GMT 46.934292 -95.975365 35,000 52 596 0
2018-06-18 02:58:48 GMT 46.930206 -95.984871 35,000 52 596 0
2018-06-18 02:58:40 GMT 46.917301 -96.007408 35,000 52 596 0
2018-06-18 02:58:37 GMT 46.912125 -96.017006 35,000 52 596 0
2018-06-18 02:58:30 GMT 46.900963 -96.039383 35,000 52 595 0
2018-06-18 02:58:27 GMT 46.894676 -96.052338 35,000 52 596 0
2018-06-18 02:58:19 GMT 46.883377 -96.074547 35,000 52 595 0
2018-06-18 02:58:16 GMT 46.877312 -96.084312 35,000 52 595 0
2018-06-18 02:58:09 GMT 46.863098 -96.113022 35,000 52 596 0
2018-06-18 02:58:06 GMT 46.858978 -96.119247 35,000 52 596 0
2018-06-18 02:57:58 GMT 46.845428 -96.144844 35,000 52 596 0
2018-06-18 02:57:47 GMT 46.825607 -96.183228 35,000 52 596 0
2018-06-18 02:57:38 GMT 46.813538 -96.205559 35,000 52 596 0
2018-06-18 02:57:34 GMT 46.807159 -96.218262 35,000 52 596 0
2018-06-18 02:57:26 GMT 46.790726 -96.250191 35,000 52 596 0
2018-06-18 02:57:17 GMT 46.776714 -96.275459 35,000 52 596 0
2018-06-18 02:57:14 GMT 46.773270 -96.281982 35,000 52 596 0
2018-06-18 02:57:07 GMT 46.760372 -96.307457 35,000 52 596 -64
2018-06-18 02:57:04 GMT 46.754181 -96.320229 35,000 52 596 0
2018-06-18 02:56:56 GMT 46.741104 -96.342529 35,000 52 596 0
2018-06-18 02:56:53 GMT 46.737423 -96.351883 35,000 52 596 0
2018-06-18 02:56:45 GMT 46.724396 -96.374283 35,000 52 595 0
2018-06-18 02:56:42 GMT 46.720200 -96.383812 35,000 52 595 64
2018-06-18 02:56:35 GMT 46.706882 -96.409218 35,000 52 595 64
2018-06-18 02:56:32 GMT 46.702835 -96.415398 35,000 52 594 0
2018-06-18 02:56:25 GMT 46.690079 -96.440666 35,000 52 595 0
2018-06-18 02:56:22 GMT 46.685703 -96.447258 35,000 52 595 0
2018-06-18 02:56:14 GMT 46.672623 -96.472389 35,000 52 595 0
2018-06-18 02:56:11 GMT 46.668045 -96.481934 35,000 52 595 64
2018-06-18 02:56:04 GMT 46.655090 -96.507324 35,000 52 595 0
2018-06-18 02:56:01 GMT 46.650417 -96.516815 35,000 52 596 0
2018-06-18 02:55:50 GMT 46.631699 -96.551735 35,000 52 596 -64
2018-06-18 02:55:43 GMT 46.619785 -96.573807 35,000 52 595 -64
2018-06-18 02:55:39 GMT 46.614029 -96.583359 35,000 52 596 0
2018-06-18 02:55:32 GMT 46.600388 -96.608543 35,000 52 595 -64
2018-06-18 02:55:27 GMT 46.594437 -96.621338 35,000 52 595 64
2018-06-18 02:55:21 GMT 46.582588 -96.643501 35,000 52 595 0
2018-06-18 02:55:18 GMT 46.579052 -96.649818 35,000 52 595 0
2018-06-18 02:55:09 GMT 46.560791 -96.684311 35,000 52 596 0
2018-06-18 02:55:00 GMT 46.547813 -96.706741 35,000 52 595 0
2018-06-18 02:54:57 GMT 46.543442 -96.715858 35,000 52 595 0
2018-06-18 02:54:51 GMT 46.530823 -96.738190 35,000 52 596 0
2018-06-18 02:54:48 GMT 46.525864 -96.747681 35,000 52 596 0
2018-06-18 02:54:40 GMT 46.512268 -96.772804 35,000 52 596 0
2018-06-18 02:54:37 GMT 46.509018 -96.779099 35,000 52 596 0
2018-06-18 02:54:29 GMT 46.495331 -96.804291 35,000 52 595 0
2018-06-18 02:54:26 GMT 46.491302 -96.813721 35,000 52 596 0
2018-06-18 02:54:19 GMT 46.477104 -96.838921 35,000 52 595 0
2018-06-18 02:54:16 GMT 46.473564 -96.845169 35,000 52 595 0
2018-06-18 02:54:06 GMT 46.455917 -96.879852 35,000 52 595 64
2018-06-18 02:53:58 GMT 46.443306 -96.902023 35,000 52 595 0
2018-06-18 02:53:55 GMT 46.436741 -96.914520 35,000 52 594 0
2018-06-18 02:53:48 GMT 46.425705 -96.936592 35,000 52 594 0
2018-06-18 02:53:44 GMT 46.418198 -96.948921 35,000 52 594 -64
2018-06-18 02:53:36 GMT 46.405334 -96.973907 35,000 52 594 0
2018-06-18 02:53:33 GMT 46.401215 -96.980339 35,000 52 594 0
2018-06-18 02:53:27 GMT 46.389538 -97.002136 35,000 52 594 -64
2018-06-18 02:53:23 GMT 46.384186 -97.011757 35,000 52 594 0
2018-06-18 02:53:16 GMT 46.370636 -97.036545 35,000 51 594 0
2018-06-18 02:53:13 GMT 46.366261 -97.046219 35,000 51 594 0
2018-06-18 02:53:05 GMT 46.352528 -97.071213 35,000 51 594 0
2018-06-18 02:53:02 GMT 46.347656 -97.080490 35,000 51 594 0
2018-06-18 02:52:55 GMT 46.336441 -97.099312 35,000 51 593 -64
2018-06-18 02:52:51 GMT 46.327011 -97.117935 35,000 51 593 0
2018-06-18 02:52:45 GMT 46.319092 -97.130463 35,000 51 593 -64
2018-06-18 02:52:42 GMT 46.313416 -97.142921 35,000 51 593 0
2018-06-18 02:52:34 GMT 46.300529 -97.164665 35,000 51 593 0
2018-06-18 02:52:31 GMT 46.294804 -97.177094 35,000 51 593 0
2018-06-18 02:52:23 GMT 46.282883 -97.198990 35,000 51 592 64
2018-06-18 02:52:20 GMT 46.276245 -97.211182 35,000 51 592 0
2018-06-18 02:52:12 GMT 46.262924 -97.236237 35,000 51 591 0
2018-06-18 02:52:07 GMT 46.254257 -97.251526 35,000 51 591 0
2018-06-18 02:52:02 GMT 46.244293 -97.270409 35,000 51 591 0
2018-06-18 02:51:56 GMT 46.235687 -97.285812 35,000 51 591 0
2018-06-18 02:51:50 GMT 46.224335 -97.304436 35,000 51 591 0
2018-06-18 02:51:38 GMT 46.206539 -97.338524 35,000 51 590 0
2018-06-18 02:51:30 GMT 46.192902 -97.363037 35,000 51 590 -64
2018-06-18 02:51:21 GMT 46.175446 -97.394073 35,000 51 590 0
2018-06-18 02:51:16 GMT 46.168507 -97.406364 35,000 51 590 64
2018-06-18 02:51:07 GMT 46.154022 -97.433990 35,000 51 589 0
2018-06-18 02:51:00 GMT 46.140244 -97.458778 35,000 51 589 0
2018-06-18 02:50:48 GMT 46.122654 -97.492538 35,000 51 589 0
2018-06-18 02:50:44 GMT 46.113098 -97.507751 35,000 51 589 -64
2018-06-18 02:50:39 GMT 46.104359 -97.523300 35,000 51 589 -64
2018-06-18 02:50:35 GMT 46.099457 -97.532471 35,000 51 589 -64
2018-06-18 02:50:28 GMT 46.087460 -97.553993 35,000 51 589 0
2018-06-18 02:50:18 GMT 46.070023 -97.587730 35,000 51 588 0
2018-06-18 02:50:13 GMT 46.062149 -97.599792 35,000 51 588 0
2018-06-18 02:50:07 GMT 46.051804 -97.618279 35,000 51 588 0
2018-06-18 02:50:03 GMT 46.042328 -97.636635 35,000 51 588 -64
2018-06-18 02:49:57 GMT 46.034389 -97.651978 35,000 51 588 0
2018-06-18 02:49:54 GMT 46.028046 -97.661285 35,000 51 587 0
2018-06-18 02:49:46 GMT 46.016655 -97.682533 35,000 51 587 128
2018-06-18 02:49:42 GMT 46.008591 -97.697868 35,000 51 587 128
2018-06-18 02:49:36 GMT 45.998840 -97.716087 34,975 51 587 -64
2018-06-18 02:49:24 GMT 45.980019 -97.749756 35,000 51 587 -64
2018-06-18 02:49:15 GMT 45.963261 -97.780174 35,000 51 587 0
2018-06-18 02:49:12 GMT 45.956650 -97.792397 35,000 51 587 -64
2018-06-18 02:49:03 GMT 45.944962 -97.813622 35,000 51 587 -64
2018-06-18 02:48:59 GMT 45.936722 -97.825752 35,025 51 587 0
2018-06-18 02:48:53 GMT 45.927109 -97.844170 35,000 51 587 64
2018-06-18 02:48:43 GMT 45.909714 -97.874451 35,000 51 586 64
2018-06-18 02:48:32 GMT 45.892082 -97.907822 35,000 51 586 -64
2018-06-18 02:48:29 GMT 45.885193 -97.919838 35,000 51 586 0
2018-06-18 02:48:22 GMT 45.874577 -97.938240 35,000 51 586 -64
2018-06-18 02:48:18 GMT 45.866455 -97.953300 35,000 51 586 0
2018-06-18 02:48:11 GMT 45.855927 -97.971519 35,000 51 586 0
2018-06-18 02:48:01 GMT 45.838257 -98.001801 35,000 51 585 64
2018-06-18 02:47:57 GMT 45.831619 -98.013725 35,000 51 584 0
2018-06-18 02:47:48 GMT 45.814060 -98.047073 35,000 51 584 0
2018-06-18 02:47:40 GMT 45.802746 -98.065063 35,000 51 584 0
2018-06-18 02:47:29 GMT 45.785294 -98.098328 35,000 51 584 0
2018-06-18 02:47:19 GMT 45.767532 -98.128410 35,000 51 583 0
2018-06-18 02:47:13 GMT 45.753983 -98.152390 35,000 51 583 0
2018-06-18 02:47:08 GMT 45.749676 -98.161263 35,000 51 583 0
2018-06-18 02:46:58 GMT 45.731895 -98.191612 35,000 51 584 0
2018-06-18 02:46:48 GMT 45.714668 -98.221481 35,000 51 583 0
2018-06-18 02:46:37 GMT 45.696075 -98.254417 35,000 51 583 -64
2018-06-18 02:46:26 GMT 45.678082 -98.287399 35,000 51 583 64
2018-06-18 02:46:16 GMT 45.660187 -98.320534 35,000 51 583 0
2018-06-18 02:46:06 GMT 45.642334 -98.350410 35,000 51 583 0
2018-06-18 02:45:55 GMT 45.623009 -98.383255 35,000 50 584 0
2018-06-18 02:45:43 GMT 45.603458 -98.419167 35,000 50 584 0
2018-06-18 02:45:33 GMT 45.587265 -98.446144 35,000 50 584 -64
2018-06-18 02:45:22 GMT 45.568962 -98.479179 35,000 50 585 0
2018-06-18 02:45:12 GMT 45.551285 -98.511993 35,000 50 585 0
2018-06-18 02:45:01 GMT 45.532928 -98.541939 35,000 50 585 0
2018-06-18 02:44:56 GMT 45.522224 -98.562775 35,000 50 587 0
2018-06-18 02:44:51 GMT 45.515194 -98.574760 35,000 50 586 0
2018-06-18 02:44:40 GMT 45.496899 -98.604637 35,000 50 586 0
2018-06-18 02:44:29 GMT 45.478958 -98.637413 35,000 50 587 0
2018-06-18 02:44:19 GMT 45.460602 -98.667427 35,000 50 587 0
2018-06-18 02:44:08 GMT 45.442665 -98.700233 35,000 50 587 0
2018-06-18 02:43:58 GMT 45.425301 -98.730110 35,000 50 588 0
2018-06-18 02:43:47 GMT 45.407192 -98.760193 35,000 50 589 0
2018-06-18 02:43:37 GMT 45.388779 -98.793114 35,000 50 589 64
2018-06-18 02:43:26 GMT 45.370415 -98.826111 35,000 50 589 0
2018-06-18 02:43:16 GMT 45.352402 -98.856049 35,000 50 590 64
2018-06-18 02:43:05 GMT 45.334305 -98.888657 35,000 50 591 -64
2018-06-18 02:42:55 GMT 45.316040 -98.918610 35,000 50 591 0
2018-06-18 02:42:38 GMT 45.286064 -98.969666 35,000 50 591 64
2018-06-18 02:42:33 GMT 45.278641 -98.984596 35,000 50 591 0
2018-06-18 02:42:09 GMT 45.234901 -99.059433 35,000 50 591 0
2018-06-18 02:42:05 GMT 45.229248 -99.068558 35,000 50 592 0
2018-06-18 02:41:44 GMT 45.178341 -99.155029 35,000 50 592 64
2018-06-18 02:41:22 GMT 45.154648 -99.196899 35,000 50 591 0
2018-06-18 02:41:19 GMT 45.148956 -99.205757 35,000 50 591 0
2018-06-18 02:41:08 GMT 45.130875 -99.235909 35,000 50 591 0
2018-06-18 02:40:58 GMT 45.111816 -99.268578 35,000 50 591 0
2018-06-18 02:40:33 GMT 45.068253 -99.343216 35,000 50 591 0
2018-06-18 02:40:26 GMT 45.056656 -99.363968 35,000 50 591 0
2018-06-18 02:40:14 GMT 45.035427 -99.399338 35,000 48 592 0
2018-06-18 02:40:04 GMT 45.017365 -99.428215 35,000 47 591 0
2018-06-18 02:39:54 GMT 44.998138 -99.456345 35,000 46 591 0
2018-06-18 02:39:43 GMT 44.976974 -99.486565 35,000 44 591 0
2018-06-18 02:39:34 GMT 44.959221 -99.510674 35,000 42 591 0
2018-06-18 02:39:24 GMT 44.938690 -99.536598 35,000 41 591 64
2018-06-18 02:39:13 GMT 44.916412 -99.564903 35,000 41 592 0
2018-06-18 02:39:01 GMT 44.892700 -99.595573 35,000 41 591 0
2018-06-18 02:38:52 GMT 44.874634 -99.618797 35,000 42 591 -64
2018-06-18 02:38:41 GMT 44.852234 -99.647240 35,000 42 591 -64
2018-06-18 02:38:31 GMT 44.830273 -99.675804 35,000 42 591 0
2018-06-18 02:38:17 GMT 44.802612 -99.709366 35,000 42 591 64
2018-06-18 02:37:12 GMT 44.581284 -99.993568 35,000 42 591 0
2018-06-18 02:36:11 GMT 44.547279 -100.037148 35,025 42 589 -192
2018-06-18 02:35:50 GMT 44.505524 -100.088600 35,000 42 589 0
2018-06-18 02:35:26 GMT 44.458504 -100.149963 35,000 42 590 -192
2018-06-18 02:35:05 GMT 44.410767 -100.208786 35,000 42 590 -192
2018-06-18 02:34:44 GMT 44.372429 -100.257477 35,025 42 589 -192
2018-06-18 02:34:24 GMT 44.331787 -100.308456 35,000 41 589 192
2018-06-18 02:34:03 GMT 44.289322 -100.361549 35,000 42 589 0
2018-06-18 02:33:42 GMT 44.246647 -100.414970 35,000 42 590 -128
2018-06-18 02:33:20 GMT 44.202328 -100.470840 35,000 42 589 -320
2018-06-18 02:32:59 GMT 44.157593 -100.526802 35,000 42 589 -128
2018-06-18 02:32:39 GMT 44.118713 -100.575043 35,000 42 589 0
2018-06-18 02:32:18 GMT 44.075867 -100.630547 35,000 41 588 0
2018-06-18 02:31:56 GMT 44.033016 -100.683487 35,000 42 587 -128
2018-06-18 02:31:35 GMT 43.989807 -100.736259 35,000 42 587 -128
2018-06-18 02:31:15 GMT 43.948975 -100.786469 35,000 41 587 -192
2018-06-18 02:30:54 GMT 43.899879 -100.849388 35,000 41 586 -192
2018-06-18 02:30:32 GMT 43.861656 -100.893272 35,025 39 585 0
2018-06-18 02:30:11 GMT 43.817001 -100.942833 35,000 39 584 0
2018-06-18 02:29:47 GMT 43.767242 -100.999298 35,000 39 583 64
2018-06-18 02:29:23 GMT 43.712631 -101.060226 35,000 38 584 -192
2018-06-18 02:29:02 GMT 43.671909 -101.104820 35,000 38 586 -128
2018-06-18 02:28:12 GMT 43.566658 -101.221550 35,000 38 585 -128
2018-06-18 02:27:50 GMT 43.519917 -101.272690 35,000 38 585 -256
2018-06-18 02:27:30 GMT 43.477249 -101.321541 35,000 38 585 -128
2018-06-18 02:27:08 GMT 43.431423 -101.370132 35,000 38 584 -192
2018-06-18 02:26:48 GMT 43.388351 -101.418816 35,000 38 585 -128
2018-06-18 02:26:28 GMT 43.338272 -101.471886 35,000 38 585 -192
2018-06-18 02:26:06 GMT 43.299633 -101.513474 35,000 38 585 -128
2018-06-18 02:25:45 GMT 43.255188 -101.561897 35,000 38 584 -128
2018-06-18 02:25:24 GMT 43.210533 -101.610062 35,000 38 584 -192
2018-06-18 02:25:03 GMT 43.166702 -101.658028 35,000 38 584 -128
2018-06-18 02:24:42 GMT 43.122314 -101.706261 35,000 36 583 -128
2018-06-18 02:24:19 GMT 43.068733 -101.757790 35,000 34 583 0
2018-06-18 02:23:57 GMT 43.022781 -101.801872 35,000 34 582 -128
2018-06-18 02:23:36 GMT 42.974304 -101.847984 35,000 34 582 -128
2018-06-18 02:23:14 GMT 42.927261 -101.891914 35,000 34 582 -192
2018-06-18 02:22:54 GMT 42.882664 -101.933372 35,000 34 581 64
2018-06-18 02:22:33 GMT 42.836060 -101.977203 35,000 34 582 -192
2018-06-18 02:22:13 GMT 42.790028 -102.020958 35,025 34 580 0
We lost coverage of the aircraft here for a total of 7 minutes
2018-06-18 02:15:14 GMT 41.847809 -102.819321 35,000 31 570 -64
2018-06-18 02:14:50 GMT 41.795792 -102.862183 35,000 31 569 0
2018-06-18 02:14:39 GMT 41.772205 -102.882492 35,000 31 569 0
2018-06-18 02:14:32 GMT 41.756706 -102.893738 35,000 31 569 0
2018-06-18 02:14:22 GMT 41.734085 -102.914116 35,000 31 569 0
2018-06-18 02:14:07 GMT 41.698013 -102.943581 35,000 31 570 0
2018-06-18 02:13:58 GMT 41.678032 -102.960159 35,000 31 570 -64
2018-06-18 02:13:50 GMT 41.660015 -102.974915 35,000 31 569 64
2018-06-18 02:13:39 GMT 41.635624 -102.993378 35,000 31 569 0
2018-06-18 02:13:27 GMT 41.608765 -103.015602 35,000 31 570 0
2018-06-18 02:13:16 GMT 41.586651 -103.033936 35,000 31 570 0
2018-06-18 02:13:06 GMT 41.563339 -103.054314 35,000 31 571 0
2018-06-18 02:12:52 GMT 41.533813 -103.078262 35,000 31 571 0
2018-06-18 02:12:44 GMT 41.507584 -103.098763 35,000 31 570 0
2018-06-18 02:12:34 GMT 41.489777 -103.113495 35,000 31 571 0
2018-06-18 02:12:30 GMT 41.479439 -103.122787 35,000 31 571 64
2018-06-18 02:12:21 GMT 41.460865 -103.137604 35,000 31 571 64
2018-06-18 02:12:17 GMT 41.450226 -103.147011 35,000 31 571 0
2018-06-18 02:12:12 GMT 41.440292 -103.154564 35,000 32 572 0
2018-06-18 02:12:06 GMT 41.423355 -103.169426 35,000 32 571 -64
2018-06-18 02:11:59 GMT 41.411987 -103.178864 35,000 32 572 -64
2018-06-18 02:11:49 GMT 41.388618 -103.197456 35,000 32 572 -128
2018-06-18 02:11:37 GMT 41.363201 -103.219925 35,025 32 572 0
2018-06-18 02:11:27 GMT 41.330612 -103.245888 35,000 31 572 128
2018-06-18 02:11:16 GMT 41.316692 -103.257004 35,000 31 572 0
2018-06-18 02:11:11 GMT 41.302551 -103.270142 35,000 31 572 0
2018-06-18 02:11:06 GMT 41.293671 -103.277527 35,000 32 573 -64
2018-06-18 02:10:59 GMT 41.273632 -103.294334 35,000 32 573 0
2018-06-18 02:10:54 GMT 41.264416 -103.301758 35,000 31 572 64
2018-06-18 02:10:44 GMT 41.244324 -103.318542 35,000 31 572 0
2018-06-18 02:10:33 GMT 41.220428 -103.336975 35,000 31 572 0
2018-06-18 02:10:19 GMT 41.184082 -103.366821 35,000 31 572 0
2018-06-18 02:10:10 GMT 41.161697 -103.385315 35,000 31 571 0
2018-06-18 02:10:00 GMT 41.143379 -103.402138 35,000 31 571 -64
2018-06-18 02:09:56 GMT 41.133556 -103.409561 35,000 32 571 0
2018-06-18 02:09:51 GMT 41.123501 -103.416992 35,025 32 571 64
2018-06-18 02:09:44 GMT 41.105812 -103.431847 35,000 32 571 0
2018-06-18 02:09:32 GMT 41.077011 -103.455811 35,000 31 570 0
2018-06-18 02:09:27 GMT 41.070328 -103.461304 35,000 31 570 0
2018-06-18 02:09:18 GMT 41.049545 -103.478027 35,000 31 569 0
2018-06-18 02:09:10 GMT 41.032974 -103.492676 35,000 31 570 0
2018-06-18 02:09:03 GMT 41.018829 -103.503662 35,000 31 569 64
2018-06-18 02:08:54 GMT 40.993294 -103.523857 35,000 31 569 64
2018-06-18 02:08:42 GMT 40.965134 -103.547607 35,000 31 569 0
2018-06-18 02:08:31 GMT 40.946594 -103.562195 35,000 31 568 0
2018-06-18 02:08:28 GMT 40.937153 -103.571358 35,000 31 568 0
2018-06-18 02:08:21 GMT 40.925034 -103.580505 35,000 31 569 0
2018-06-18 02:08:15 GMT 40.907547 -103.595093 35,000 31 568 0
2018-06-18 02:08:12 GMT 40.903107 -103.598755 35,000 31 568 0
2018-06-18 02:08:03 GMT 40.877522 -103.618927 35,000 31 568 0
2018-06-18 02:07:50 GMT 40.850239 -103.641151 35,000 32 567 -64
2018-06-18 02:07:45 GMT 40.843918 -103.646729 35,000 33 567 -64
2018-06-18 02:07:36 GMT 40.820168 -103.668365 35,000 35 565 0
2018-06-18 02:07:33 GMT 40.817001 -103.672363 35,000 35 565 0
2018-06-18 02:07:22 GMT 40.789078 -103.698608 35,000 36 564 64
2018-06-18 02:07:19 GMT 40.784637 -103.702698 35,000 36 564 64
2018-06-18 02:07:12 GMT 40.772736 -103.714722 35,000 36 564 0
2018-06-18 02:07:06 GMT 40.757137 -103.728981 35,000 36 564 -64
2018-06-18 02:07:02 GMT 40.750717 -103.735168 35,000 36 564 -64
2018-06-18 02:06:58 GMT 40.745312 -103.741211 35,000 36 564 -64
2018-06-18 02:06:53 GMT 40.732323 -103.753387 35,000 36 564 0
2018-06-18 02:06:49 GMT 40.722965 -103.761559 35,000 36 563 0
2018-06-18 02:06:40 GMT 40.707325 -103.777855 35,000 36 563 0
2018-06-18 02:06:37 GMT 40.697456 -103.785973 35,000 36 563 0
2018-06-18 02:06:29 GMT 40.682739 -103.800049 35,000 36 563 -64
2018-06-18 02:06:24 GMT 40.670425 -103.812256 35,000 36 563 -64
2018-06-18 02:06:16 GMT 40.655045 -103.828491 35,000 36 563 0
2018-06-18 02:06:12 GMT 40.643780 -103.838463 35,000 36 563 0
2018-06-18 02:06:05 GMT 40.631680 -103.850639 35,000 36 562 -64
2018-06-18 02:05:55 GMT 40.605701 -103.874542 35,000 35 562 0
2018-06-18 02:05:47 GMT 40.587250 -103.892639 35,000 35 563 0
2018-06-18 02:05:40 GMT 40.576748 -103.902573 35,000 35 562 0
2018-06-18 02:05:35 GMT 40.566376 -103.912598 35,000 35 562 0
2018-06-18 02:05:32 GMT 40.561752 -103.916565 35,000 35 562 0
2018-06-18 02:05:21 GMT 40.537689 -103.938591 35,000 36 562 -64
2018-06-18 02:05:18 GMT 40.533451 -103.942650 35,000 36 561 -64
2018-06-18 02:05:12 GMT 40.516319 -103.958755 35,000 36 562 192
2018-06-18 02:05:08 GMT 40.507988 -103.966934 35,000 37 562 0
2018-06-18 02:04:58 GMT 40.486267 -103.990112 35,000 39 560 64
2018-06-18 02:04:55 GMT 40.483200 -103.994507 35,000 39 560 0
2018-06-18 02:04:52 GMT 40.478256 -103.998779 35,000 39 560 0
2018-06-18 02:04:48 GMT 40.471771 -104.005386 35,000 39 560 0
2018-06-18 02:04:43 GMT 40.459480 -104.018242 35,000 39 560 0
2018-06-18 02:04:38 GMT 40.449554 -104.029175 35,000 39 560 0
2018-06-18 02:04:32 GMT 40.437698 -104.042053 35,000 39 560 64
2018-06-18 02:04:27 GMT 40.429550 -104.050903 35,000 39 560 0
2018-06-18 02:04:22 GMT 40.418518 -104.063782 35,000 39 560 64
2018-06-18 02:04:19 GMT 40.413712 -104.068115 35,000 39 560 64
2018-06-18 02:04:15 GMT 40.405975 -104.076721 35,000 39 561 -64
2018-06-18 02:04:09 GMT 40.393616 -104.089966 35,000 39 561 -64
2018-06-18 02:04:06 GMT 40.385834 -104.098572 35,000 39 561 -64
2018-06-18 02:04:00 GMT 40.373474 -104.111511 35,000 39 561 0
2018-06-18 02:03:56 GMT 40.367340 -104.120117 35,000 39 561 0
2018-06-18 02:03:52 GMT 40.360046 -104.126671 35,000 39 561 0
2018-06-18 02:03:49 GMT 40.351711 -104.135284 35,000 39 561 -64
2018-06-18 02:03:45 GMT 40.344589 -104.144150 35,000 39 561 64
2018-06-18 02:03:40 GMT 40.336395 -104.152763 35,000 39 561 0
2018-06-18 02:03:37 GMT 40.329273 -104.161316 35,000 39 561 64
2018-06-18 02:03:34 GMT 40.324993 -104.165688 35,000 39 561 0
2018-06-18 02:03:31 GMT 40.318771 -104.172180 35,000 39 561 -64
2018-06-18 02:03:28 GMT 40.312050 -104.178543 35,000 39 561 0
2018-06-18 02:03:24 GMT 40.301788 -104.189331 35,000 39 561 64
2018-06-18 02:03:20 GMT 40.295712 -104.195892 35,000 39 562 -64
2018-06-18 02:03:17 GMT 40.289146 -104.204636 35,000 39 562 -64
2018-06-18 02:03:13 GMT 40.283188 -104.208946 35,000 39 563 0
2018-06-18 02:03:10 GMT 40.274780 -104.219666 35,000 39 563 0
2018-06-18 02:03:07 GMT 40.267872 -104.226173 35,000 39 563 -64
2018-06-18 02:03:03 GMT 40.260376 -104.234848 35,000 39 563 0
2018-06-18 02:02:59 GMT 40.254044 -104.241150 35,000 39 564 64
2018-06-18 02:02:56 GMT 40.246971 -104.247704 35,000 39 564 128
2018-06-18 02:02:52 GMT 40.237610 -104.258667 35,000 39 564 128
2018-06-18 02:02:48 GMT 40.231049 -104.265182 35,000 40 563 128
2018-06-18 02:02:42 GMT 40.218842 -104.280884 34,975 41 563 0
2018-06-18 02:02:38 GMT 40.212429 -104.287842 34,975 42 563 -64
2018-06-18 02:02:34 GMT 40.204189 -104.297142 35,000 45 561 -64
2018-06-18 02:02:31 GMT 40.199753 -104.304443 35,000 47 560 0
2018-06-18 02:02:27 GMT 40.191467 -104.314331 35,000 47 559 0
2018-06-18 02:02:22 GMT 40.182037 -104.329285 35,000 47 560 0
2018-06-18 02:02:19 GMT 40.178421 -104.334229 35,000 47 560 -64
2018-06-18 02:02:16 GMT 40.172161 -104.341713 35,000 47 560 0
2018-06-18 02:02:13 GMT 40.165318 -104.351830 35,000 47 560 0
2018-06-18 02:02:10 GMT 40.161163 -104.359253 35,000 47 560 0
2018-06-18 02:02:05 GMT 40.154343 -104.369263 35,000 47 560 0
2018-06-18 02:02:01 GMT 40.144367 -104.381851 35,000 47 561 0
2018-06-18 02:01:54 GMT 40.130077 -104.401894 35,000 47 561 64
2018-06-18 02:01:49 GMT 40.122940 -104.414551 35,000 47 562 64
2018-06-18 02:01:45 GMT 40.117695 -104.419556 35,000 47 562 0
2018-06-18 02:01:41 GMT 40.110809 -104.429443 35,000 47 562 -64
2018-06-18 02:01:38 GMT 40.105919 -104.436913 35,000 47 562 -64
2018-06-18 02:01:35 GMT 40.098560 -104.446960 35,000 47 562 0
2018-06-18 02:01:32 GMT 40.096046 -104.452080 35,000 47 562 0
2018-06-18 02:01:29 GMT 40.088879 -104.462006 35,000 47 562 0
2018-06-18 02:01:24 GMT 40.079681 -104.474670 35,000 47 562 0
2018-06-18 02:01:21 GMT 40.075611 -104.482231 35,000 47 562 -64
2018-06-18 02:01:18 GMT 40.070492 -104.487160 35,000 47 562 -64
2018-06-18 02:01:14 GMT 40.063156 -104.499573 35,000 47 562 0
2018-06-18 02:01:11 GMT 40.058716 -104.504639 35,000 47 562 0
2018-06-18 02:01:08 GMT 40.051987 -104.514771 35,000 47 562 0
2018-06-18 02:01:05 GMT 40.046795 -104.522179 35,000 47 562 0
2018-06-18 02:01:02 GMT 40.043907 -104.527359 35,000 47 562 0
2018-06-18 02:00:58 GMT 40.035343 -104.537285 35,000 47 562 0
2018-06-18 02:00:52 GMT 40.019989 -104.559631 35,000 47 562 -64
2018-06-18 02:00:47 GMT 40.015232 -104.567184 35,025 47 562 0
2018-06-18 02:00:44 GMT 40.010811 -104.572304 35,000 47 562 -64
2018-06-18 02:00:39 GMT 40.001362 -104.587219 35,000 47 562 0
2018-06-18 02:00:36 GMT 39.996185 -104.594788 35,000 47 561 -64
2018-06-18 02:00:32 GMT 39.988632 -104.604797 35,000 47 561 64
2018-06-18 02:00:25 GMT 39.976269 -104.622116 35,000 47 561 0
2018-06-18 02:00:22 GMT 39.970963 -104.629639 35,000 47 560 64
2018-06-18 02:00:19 GMT 39.967438 -104.634644 35,000 47 560 0
2018-06-18 02:00:16 GMT 39.960754 -104.644653 35,000 47 560 0
2018-06-18 02:00:13 GMT 39.955227 -104.652016 35,000 47 560 -64
2018-06-18 02:00:10 GMT 39.949905 -104.659546 35,000 47 560 0
2018-06-18 02:00:04 GMT 39.941074 -104.671867 35,000 47 559 -320
2018-06-18 02:00:01 GMT 39.934280 -104.681976 35,000 47 560 64
2018-06-18 01:59:58 GMT 39.930927 -104.686783 35,000 47 560 0
2018-06-18 01:59:53 GMT 39.920963 -104.701843 35,000 47 559 64
2018-06-18 01:59:50 GMT 39.915527 -104.709381 35,000 47 559 64
2018-06-18 01:59:47 GMT 39.911636 -104.714096 35,000 47 559 -64
2018-06-18 01:59:44 GMT 39.906021 -104.721558 35,000 47 559 0
2018-06-18 01:59:41 GMT 39.900742 -104.729080 35,000 47 560 0
2018-06-18 01:59:38 GMT 39.894470 -104.738998 35,000 47 559 64
2018-06-18 01:59:33 GMT 39.885677 -104.751343 35,000 47 559 64
2018-06-18 01:59:30 GMT 39.881767 -104.756470 35,000 47 559 64
2018-06-18 01:59:26 GMT 39.875252 -104.766418 35,000 47 559 64
2018-06-18 01:59:22 GMT 39.867989 -104.776184 35,000 47 559 64
2018-06-18 01:59:19 GMT 39.861832 -104.783714 35,000 47 559 -64
2018-06-18 01:59:16 GMT 39.856476 -104.793449 35,000 47 559 0
2018-06-18 01:59:13 GMT 39.850533 -104.800842 35,000 47 559 0
2018-06-18 01:59:09 GMT 39.843639 -104.810852 35,000 47 559 64
2018-06-18 01:59:06 GMT 39.838074 -104.818169 35,000 47 559 64
2018-06-18 01:59:02 GMT 39.832005 -104.825806 35,000 47 559 -64
2018-06-18 01:58:59 GMT 39.826183 -104.835693 35,000 47 559 -64
2018-06-18 01:58:56 GMT 39.820816 -104.843010 35,000 47 558 -64
2018-06-18 01:58:52 GMT 39.813629 -104.852921 35,000 47 559 -64
2018-06-18 01:58:47 GMT 39.805607 -104.865295 35,000 47 558 -64
2018-06-18 01:58:44 GMT 39.801094 -104.870117 35,000 47 558 0
2018-06-18 01:58:40 GMT 39.795040 -104.880005 35,000 47 557 0
2018-06-18 01:58:37 GMT 39.787594 -104.890015 35,000 47 557 64
2018-06-18 01:58:34 GMT 39.782043 -104.897339 35,000 47 557 64
2018-06-18 01:58:31 GMT 39.777306 -104.904724 35,000 47 557 64
2018-06-18 01:58:28 GMT 39.771286 -104.912270 35,000 47 557 0
2018-06-18 01:58:25 GMT 39.765667 -104.919678 35,000 47 557 -64
2018-06-18 01:58:22 GMT 39.761719 -104.926956 35,000 47 558 -64
2018-06-18 01:58:18 GMT 39.753098 -104.939148 35,000 47 557 -64
2018-06-18 01:58:14 GMT 39.748161 -104.944153 35,000 47 557 64
2018-06-18 01:58:10 GMT 39.740067 -104.956512 35,000 47 557 256
2018-06-18 01:58:06 GMT 39.732384 -104.966431 35,000 47 557 256
2018-06-18 01:58:03 GMT 39.730499 -104.971260 35,000 47 557 0
2018-06-18 01:57:59 GMT 39.721722 -104.983643 35,000 47 558 -128
2018-06-18 01:57:56 GMT 39.716400 -104.990906 35,000 47 558 -64
2018-06-18 01:57:53 GMT 39.711456 -104.995979 35,000 47 558 0
2018-06-18 01:57:50 GMT 39.706264 -105.003296 35,000 47 558 64
2018-06-18 01:57:47 GMT 39.701797 -105.010788 35,000 47 558 64
2018-06-18 01:57:43 GMT 39.695435 -105.020699 35,000 47 559 128
2018-06-18 01:57:40 GMT 39.687836 -105.030434 35,000 47 558 0
2018-06-18 01:57:37 GMT 39.684082 -105.035446 35,000 47 558 0
2018-06-18 01:57:34 GMT 39.678707 -105.042786 35,000 47 559 0
2018-06-18 01:57:31 GMT 39.673187 -105.050072 35,000 47 559 0
2018-06-18 01:57:27 GMT 39.666092 -105.060043 35,000 47 559 -64
2018-06-18 01:57:24 GMT 39.659454 -105.069778 35,000 47 559 -128
2018-06-18 01:57:20 GMT 39.655151 -105.077332 35,000 47 559 64
2018-06-18 01:57:17 GMT 39.647053 -105.087219 35,000 47 559 64
2018-06-18 01:57:13 GMT 39.641647 -105.094559 35,000 47 559 64
2018-06-18 01:57:09 GMT 39.634277 -105.104408 35,000 47 559 64
2018-06-18 01:57:06 GMT 39.629036 -105.111816 35,000 47 559 64
2018-06-18 01:57:03 GMT 39.622284 -105.121704 35,000 47 560 128
2018-06-18 01:56:58 GMT 39.614929 -105.131409 35,000 46 560 64
2018-06-18 01:56:55 GMT 39.610428 -105.138565 35,000 45 561 64
2018-06-18 01:56:50 GMT 39.598938 -105.152954 35,000 44 562 -64
2018-06-18 01:56:46 GMT 39.587448 -105.167107 35,000 43 562 -64
2018-06-18 01:56:42 GMT 39.583878 -105.171761 35,000 43 561 0
2018-06-18 01:56:38 GMT 39.579552 -105.178650 35,000 42 562 0
2018-06-18 01:56:34 GMT 39.571869 -105.187744 35,000 42 562 0
2018-06-18 01:56:31 GMT 39.564003 -105.196594 35,000 41 561 0
2018-06-18 01:56:25 GMT 39.551479 -105.209778 35,000 40 560 64
2018-06-18 01:56:19 GMT 39.538239 -105.224899 35,000 38 560 0
2018-06-18 01:56:15 GMT 39.531696 -105.231323 35,000 37 561 0
2018-06-18 01:56:11 GMT 39.525284 -105.237442 35,000 37 561 0
2018-06-18 01:56:08 GMT 39.519127 -105.243530 35,000 36 561 -64
2018-06-18 01:56:04 GMT 39.508804 -105.253738 35,000 36 561 0
2018-06-18 01:55:58 GMT 39.498737 -105.263794 35,000 36 561 0
2018-06-18 01:55:53 GMT 39.485840 -105.275757 35,000 36 561 0
2018-06-18 01:55:49 GMT 39.477413 -105.283630 35,000 36 561 0
2018-06-18 01:55:41 GMT 39.456886 -105.303772 35,000 36 561 0
2018-06-18 01:55:38 GMT 39.450348 -105.309807 35,000 36 560 0
2018-06-18 01:55:33 GMT 39.444038 -105.315674 35,000 36 560 0
2018-06-18 01:55:30 GMT 39.439476 -105.319641 35,000 36 560 0
2018-06-18 01:55:27 GMT 39.432446 -105.327576 35,000 36 559 0
2018-06-18 01:55:22 GMT 39.422104 -105.337692 35,000 36 558 64
2018-06-18 01:55:18 GMT 39.410660 -105.347595 35,000 36 559 64
2018-06-18 01:55:15 GMT 39.407635 -105.351440 35,000 36 559 64
2018-06-18 01:55:10 GMT 39.397110 -105.361511 35,000 36 558 0
2018-06-18 01:55:05 GMT 39.388412 -105.369339 35,000 36 558 64
2018-06-18 01:55:00 GMT 39.377838 -105.379211 35,000 36 558 64
2018-06-18 01:54:57 GMT 39.369740 -105.387085 35,000 36 558 64
2018-06-18 01:54:54 GMT 39.365597 -105.391052 35,000 36 558 0
2018-06-18 01:54:49 GMT 39.352936 -105.402893 35,000 36 558 -64
2018-06-18 01:54:44 GMT 39.342773 -105.412979 35,000 36 558 -64
2018-06-18 01:54:39 GMT 39.334763 -105.420807 35,000 36 557 -64
2018-06-18 01:54:33 GMT 39.316113 -105.438660 35,000 36 557 0
2018-06-18 01:54:29 GMT 39.310154 -105.442566 35,000 36 557 0
2018-06-18 01:54:23 GMT 39.298561 -105.454407 35,000 36 557 0
2018-06-18 01:54:17 GMT 39.288895 -105.464394 35,000 36 557 0
2018-06-18 01:54:12 GMT 39.274586 -105.478210 35,000 36 557 0
2018-06-18 01:54:09 GMT 39.269234 -105.482117 35,000 36 557 0
2018-06-18 01:54:05 GMT 39.261459 -105.489929 35,000 36 556 64
2018-06-18 01:54:01 GMT 39.252102 -105.497864 35,000 36 556 0
2018-06-18 01:53:58 GMT 39.248329 -105.501892 35,000 36 556 0
2018-06-18 01:53:52 GMT 39.233826 -105.515739 35,000 36 556 64
2018-06-18 01:53:48 GMT 39.227570 -105.521729 35,000 36 556 0
2018-06-18 01:53:41 GMT 39.210766 -105.537537 35,000 36 555 64
2018-06-18 01:53:38 GMT 39.204758 -105.543442 35,000 36 555 64
2018-06-18 01:53:35 GMT 39.200729 -105.547508 35,000 36 555 64
2018-06-18 01:53:31 GMT 39.190468 -105.557373 35,000 36 555 64
2018-06-18 01:53:27 GMT 39.184021 -105.563385 35,000 36 555 64
2018-06-18 01:53:24 GMT 39.178688 -105.569153 35,000 36 555 64
2018-06-18 01:53:19 GMT 39.166306 -105.581055 35,000 36 555 0
2018-06-18 01:53:14 GMT 39.156097 -105.591095 35,000 36 555 -64
2018-06-18 01:53:08 GMT 39.139938 -105.606857 35,000 34 554 0
2018-06-18 01:53:03 GMT 39.134373 -105.612732 35,000 36 555 0
2018-06-18 01:53:00 GMT 39.129112 -105.616455 35,000 35 555 -64
2018-06-18 01:52:57 GMT 39.123825 -105.622375 35,000 35 554 -64
2018-06-18 01:52:54 GMT 39.115265 -105.630020 35,000 35 554 -64
2018-06-18 01:52:51 GMT 39.109863 -105.633720 35,000 34 554 0
2018-06-18 01:52:47 GMT 39.101624 -105.641129 35,000 33 554 0
2018-06-18 01:52:44 GMT 39.095360 -105.646606 35,000 33 554 64
2018-06-18 01:52:40 GMT 39.083954 -105.655457 35,000 32 554 64
2018-06-18 01:52:35 GMT 39.073666 -105.664246 35,000 32 554 0
2018-06-18 01:52:28 GMT 39.058273 -105.676414 35,000 32 554 0
2018-06-18 01:52:24 GMT 39.049942 -105.683403 35,000 32 554 0
2018-06-18 01:52:17 GMT 39.034702 -105.695618 35,000 31 553 0
2018-06-18 01:52:13 GMT 39.025906 -105.702637 35,000 31 554 -64
2018-06-18 01:52:09 GMT 39.017853 -105.709595 35,000 31 553 0
2018-06-18 01:52:06 GMT 39.013103 -105.712952 35,000 29 554 0
2018-06-18 01:52:03 GMT 39.005096 -105.719849 35,000 30 554 0
2018-06-18 01:51:58 GMT 38.992310 -105.728241 35,000 30 554 0
2018-06-18 01:51:53 GMT 38.984665 -105.734688 35,000 29 555 0
2018-06-18 01:51:50 GMT 38.975922 -105.741318 35,000 29 555 0
2018-06-18 01:51:46 GMT 38.965622 -105.747948 35,000 29 554 0
2018-06-18 01:51:43 GMT 38.962189 -105.751114 35,000 29 554 0
2018-06-18 01:51:40 GMT 38.953583 -105.757797 35,000 29 554 -64
2018-06-18 01:51:35 GMT 38.940994 -105.765930 35,000 29 554 -64
2018-06-18 01:51:32 GMT 38.937969 -105.769104 35,000 29 554 0
2018-06-18 01:51:28 GMT 38.928982 -105.775757 35,000 29 554 0
2018-06-18 01:51:23 GMT 38.914692 -105.785583 35,000 29 554 0
2018-06-18 01:51:19 GMT 38.904282 -105.793739 35,000 29 554 0
2018-06-18 01:51:10 GMT 38.887363 -105.805237 35,000 29 554 0
2018-06-18 01:51:02 GMT 38.871632 -105.818359 35,000 29 554 0
2018-06-18 01:50:59 GMT 38.861900 -105.824890 35,000 29 554 0
2018-06-18 01:50:56 GMT 38.857849 -105.828186 35,000 29 554 0
2018-06-18 01:50:48 GMT 38.838299 -105.841309 35,000 29 553 0
2018-06-18 01:50:45 GMT 38.831409 -105.847778 35,000 29 553 0
2018-06-18 01:50:41 GMT 38.824539 -105.852676 35,000 29 554 0
2018-06-18 01:50:37 GMT 38.813858 -105.860901 35,000 29 553 0
2018-06-18 01:50:34 GMT 38.807247 -105.864197 35,000 29 553 0
2018-06-18 01:50:27 GMT 38.791607 -105.877136 35,000 29 552 64
2018-06-18 01:50:23 GMT 38.783020 -105.882111 35,000 29 553 0
2018-06-18 01:50:16 GMT 38.767227 -105.893578 35,000 29 553 0
2018-06-18 01:50:12 GMT 38.758972 -105.900085 35,000 29 551 0
2018-06-18 01:50:05 GMT 38.743011 -105.911430 35,000 29 551 0
2018-06-18 01:49:55 GMT 38.715355 -105.932434 35,000 29 550 0
2018-06-18 01:49:50 GMT 38.708176 -105.937401 35,000 29 551 0
2018-06-18 01:49:45 GMT 38.696873 -105.945557 35,000 29 551 0
2018-06-18 01:49:41 GMT 38.685883 -105.953583 35,000 29 550 -64
2018-06-18 01:49:37 GMT 38.679417 -105.958496 35,000 29 550 -64
2018-06-18 01:49:33 GMT 38.672974 -105.963196 35,000 29 550 0
2018-06-18 01:49:26 GMT 38.657070 -105.974670 35,000 29 549 -64
2018-06-18 01:49:23 GMT 38.650360 -105.979378 35,000 29 549 0
2018-06-18 01:49:16 GMT 38.633331 -105.992271 35,000 29 548 64
2018-06-18 01:49:12 GMT 38.626301 -105.997070 35,000 29 547 64
2018-06-18 01:49:06 GMT 38.611084 -106.008331 35,000 29 548 64
2018-06-18 01:49:03 GMT 38.605305 -106.013245 35,000 30 547 0
2018-06-18 01:49:00 GMT 38.596180 -106.019714 35,000 30 547 0
2018-06-18 01:48:55 GMT 38.587292 -106.026367 35,000 30 547 -64
2018-06-18 01:48:48 GMT 38.568192 -106.041351 35,000 32 545 -64
2018-06-18 01:48:41 GMT 38.559540 -106.048401 35,000 33 544 0
2018-06-18 01:48:34 GMT 38.542191 -106.062668 35,000 34 542 0
2018-06-18 01:48:31 GMT 38.537430 -106.066193 35,000 34 542 0
2018-06-18 01:48:22 GMT 38.519184 -106.082336 35,000 34 543 -64
2018-06-18 01:48:19 GMT 38.512436 -106.087807 35,000 34 543 -64
2018-06-18 01:48:11 GMT 38.496643 -106.102135 35,000 34 542 0
2018-06-18 01:48:08 GMT 38.488495 -106.109360 35,000 34 542 64
2018-06-18 01:47:59 GMT 38.472198 -106.123749 35,000 34 542 64
2018-06-18 01:47:56 GMT 38.464764 -106.129211 35,000 35 542 64
2018-06-18 01:47:47 GMT 38.446655 -106.146019 34,975 37 541 64
2018-06-18 01:47:44 GMT 38.441582 -106.151611 35,000 40 538 -128
2018-06-18 01:47:40 GMT 38.431778 -106.161606 35,000 39 540 -128
2018-06-18 01:47:29 GMT 38.406052 -106.191162 35,000 43 537 -64
2018-06-18 01:47:22 GMT 38.398636 -106.199753 35,000 43 536 0
2018-06-18 01:47:16 GMT 38.389538 -106.210564 35,000 43 537 -64
2018-06-18 01:47:06 GMT 38.369843 -106.232178 35,000 43 536 64
2018-06-18 01:46:56 GMT 38.350433 -106.255852 35,000 43 536 0
2018-06-18 01:46:45 GMT 38.331020 -106.279526 35,000 42 535 0
2018-06-18 01:46:34 GMT 38.310333 -106.303123 35,000 43 534 0
2018-06-18 01:46:24 GMT 38.293579 -106.322411 35,000 42 534 0
2018-06-18 01:46:21 GMT 38.289368 -106.328842 35,000 42 534 0
2018-06-18 01:46:11 GMT 38.270325 -106.350052 35,000 42 532 0
2018-06-18 01:46:01 GMT 38.250530 -106.373512 35,000 43 532 64
2018-06-18 01:45:57 GMT 38.240242 -106.386345 35,000 43 531 0
2018-06-18 01:45:49 GMT 38.231094 -106.397095 35,000 42 531 -64
2018-06-18 01:45:39 GMT 38.211147 -106.420441 35,000 42 531 64
2018-06-18 01:45:32 GMT 38.197182 -106.437340 35,000 43 530 -64
2018-06-18 01:45:28 GMT 38.193596 -106.441574 35,000 42 529 -64
2018-06-18 01:45:22 GMT 38.177536 -106.460793 35,025 43 529 -64
2018-06-18 01:45:16 GMT 38.170303 -106.469093 35,025 42 528 0
2018-06-18 01:45:04 GMT 38.149792 -106.492447 35,000 42 528 64
2018-06-18 01:44:54 GMT 38.130707 -106.515488 35,000 42 527 64
2018-06-18 01:44:41 GMT 38.109924 -106.540794 35,000 42 527 0
2018-06-18 01:44:29 GMT 38.088547 -106.566154 35,000 42 527 0
2018-06-18 01:44:20 GMT 38.068371 -106.589233 35,000 42 527 0
2018-06-18 01:44:08 GMT 38.048721 -106.612267 35,000 42 526 -64
2018-06-18 01:43:55 GMT 38.027298 -106.637337 35,000 42 525 0
2018-06-18 01:43:45 GMT 38.007343 -106.660469 35,000 42 525 0
2018-06-18 01:43:33 GMT 37.986877 -106.683502 35,000 42 524 64
2018-06-18 01:43:22 GMT 37.966415 -106.708336 35,000 42 525 -64
2018-06-18 01:43:10 GMT 37.945892 -106.731400 35,000 42 524 0
2018-06-18 01:43:00 GMT 37.927322 -106.754265 35,000 42 524 64
2018-06-18 01:42:49 GMT 37.905075 -106.779160 35,000 42 524 0
2018-06-18 01:42:35 GMT 37.885162 -106.804054 35,000 42 523 0
2018-06-18 01:42:24 GMT 37.865639 -106.826996 35,000 42 522 64
2018-06-18 01:42:14 GMT 37.845108 -106.849640 34,975 42 521 0
2018-06-18 01:42:03 GMT 37.825508 -106.872437 35,000 42 520 -128
2018-06-18 01:41:50 GMT 37.805164 -106.897095 35,000 42 518 64
2018-06-18 01:41:39 GMT 37.785370 -106.919647 35,000 42 515 -64
We lost coverage of the aircraft here for a total of 28 minutes
2018-06-18 01:14:00 GMT 35.113979 -110.525269 34,950 45 522 1344
2018-06-18 01:13:37 GMT 35.078110 -110.569206 34,625 45 522 1344
2018-06-18 01:13:31 GMT 35.065750 -110.583740 34,375 45 523 1216
2018-06-18 01:13:25 GMT 35.056488 -110.596275 34,275 45 523 1216
2018-06-18 01:13:20 GMT 35.048080 -110.606819 34,175 45 523 1216
2018-06-18 01:13:10 GMT 35.029301 -110.627861 33,825 45 526 1600
2018-06-18 01:12:59 GMT 35.012032 -110.650925 33,625 45 526 1664
2018-06-18 01:12:56 GMT 35.006973 -110.657158 33,625 45 526 1664
2018-06-18 01:12:46 GMT 34.989349 -110.678230 33,350 45 528 1472
2018-06-18 01:12:39 GMT 34.976463 -110.692978 33,175 45 528 1280
2018-06-18 01:12:36 GMT 34.971176 -110.699417 33,150 45 528 1216
2018-06-18 01:12:28 GMT 34.957489 -110.716347 32,975 45 528 1216
2018-06-18 01:12:24 GMT 34.950531 -110.724586 32,900 45 528 1152
2018-06-18 01:12:17 GMT 34.940735 -110.737366 32,800 45 528 960
2018-06-18 01:12:12 GMT 34.931122 -110.747795 32,675 45 527 832
2018-06-18 01:12:09 GMT 34.924515 -110.756264 32,675 45 527 832
2018-06-18 01:12:04 GMT 34.915787 -110.766685 32,600 45 525 384
2018-06-18 01:12:01 GMT 34.912033 -110.770996 32,600 45 523 448
2018-06-18 01:11:56 GMT 34.903843 -110.781441 32,575 45 522 448
2018-06-18 01:11:46 GMT 34.885117 -110.804237 32,500 45 519 192
2018-06-18 01:11:35 GMT 34.866650 -110.826820 32,350 45 516 1536
2018-06-18 01:11:28 GMT 34.855865 -110.841179 32,050 45 516 1920
2018-06-18 01:11:23 GMT 34.847095 -110.851418 32,025 45 518 2112
2018-06-18 01:11:17 GMT 34.838104 -110.861694 31,850 45 519 1984
2018-06-18 01:11:13 GMT 34.829685 -110.872192 31,700 45 519 1792
2018-06-18 01:11:05 GMT 34.817688 -110.886581 31,500 45 520 1792
2018-06-18 01:11:01 GMT 34.809341 -110.896973 31,350 45 521 1920
2018-06-18 01:10:55 GMT 34.798820 -110.909554 31,150 45 522 1920
2018-06-18 01:10:45 GMT 34.782108 -110.930267 30,875 45 523 1856
2018-06-18 01:10:42 GMT 34.776810 -110.936523 30,775 45 523 1856
2018-06-18 01:10:33 GMT 34.760414 -110.955391 30,500 45 523 1344
2018-06-18 01:10:30 GMT 34.758602 -110.959511 30,500 45 523 1344
2018-06-18 01:10:21 GMT 34.741238 -110.980339 30,275 44 523 1664
2018-06-18 01:10:09 GMT 34.720570 -111.005287 30,025 44 523 832
2018-06-18 01:09:57 GMT 34.696453 -111.034065 29,800 44 520 1344
2018-06-18 01:09:50 GMT 34.688492 -111.042366 29,700 44 519 1344
2018-06-18 01:09:45 GMT 34.678623 -111.054726 29,575 45 520 1408
2018-06-18 01:09:41 GMT 34.674225 -111.060959 29,525 45 520 1408
2018-06-18 01:09:38 GMT 34.669033 -111.067085 29,450 44 519 1536
2018-06-18 01:09:33 GMT 34.659164 -111.077217 29,300 43 519 1856
2018-06-18 01:09:28 GMT 34.650414 -111.087112 29,150 41 519 1536
2018-06-18 01:09:20 GMT 34.637146 -111.102509 29,000 40 517 896
2018-06-18 01:09:17 GMT 34.630211 -111.109886 28,950 39 515 704
2018-06-18 01:09:12 GMT 34.619705 -111.118919 28,875 38 513 1216
2018-06-18 01:09:05 GMT 34.609177 -111.129570 28,750 37 511 1600
2018-06-18 01:09:01 GMT 34.599953 -111.138153 28,625 36 510 1472
2018-06-18 01:08:54 GMT 34.587288 -111.148109 28,475 34 508 1088
2018-06-18 01:08:50 GMT 34.578461 -111.156136 28,400 33 506 1216
2018-06-18 01:08:43 GMT 34.566513 -111.165382 28,275 32 505 1472
2018-06-18 01:08:38 GMT 34.553970 -111.174522 28,125 32 504 1408
2018-06-18 01:08:33 GMT 34.545067 -111.182213 28,000 32 503 1856
2018-06-18 01:08:27 GMT 34.533382 -111.191368 27,800 32 503 2112
2018-06-18 01:08:22 GMT 34.523163 -111.199020 27,650 32 503 1792
2018-06-18 01:08:18 GMT 34.515244 -111.205185 27,525 32 503 1664
2018-06-18 01:08:15 GMT 34.510246 -111.209679 27,475 32 503 1600
2018-06-18 01:08:10 GMT 34.499039 -111.217293 27,350 32 500 1216
2018-06-18 01:08:07 GMT 34.495972 -111.220482 27,325 32 500 1216
2018-06-18 01:08:04 GMT 34.490833 -111.224899 27,275 32 500 1344
2018-06-18 01:08:00 GMT 34.479149 -111.233994 27,125 32 499 1920
2018-06-18 01:07:54 GMT 34.469929 -111.240067 26,975 32 498 2048
2018-06-18 01:07:46 GMT 34.452576 -111.253670 26,725 32 499 1408
2018-06-18 01:07:43 GMT 34.448502 -111.256699 26,675 32 497 1216
2018-06-18 01:07:36 GMT 34.433487 -111.268806 26,500 32 495 1920
2018-06-18 01:07:33 GMT 34.427197 -111.273193 26,400 32 495 1920
2018-06-18 01:07:26 GMT 34.413574 -111.283768 26,200 32 494 1408
2018-06-18 01:07:22 GMT 34.406616 -111.289764 26,125 32 494 1216
2018-06-18 01:07:15 GMT 34.391830 -111.301704 25,950 32 492 1664
2018-06-18 01:07:11 GMT 34.385670 -111.306152 25,850 32 492 2048
2018-06-18 01:07:07 GMT 34.378502 -111.310677 25,725 32 492 1984
2018-06-18 01:07:03 GMT 34.369610 -111.318001 25,600 32 492 1664
2018-06-18 01:07:00 GMT 34.365280 -111.320915 25,525 32 491 1600
2018-06-18 01:06:53 GMT 34.353012 -111.331413 25,375 32 490 1536
2018-06-18 01:06:48 GMT 34.343403 -111.338654 25,250 32 489 1536
2018-06-18 01:06:45 GMT 34.335953 -111.344604 25,150 32 488 1536
2018-06-18 01:06:41 GMT 34.327156 -111.350494 25,025 32 487 1792
2018-06-18 01:06:37 GMT 34.322342 -111.355011 24,950 32 486 1856
2018-06-18 01:06:30 GMT 34.307465 -111.366837 24,725 32 486 1664
2018-06-18 01:06:26 GMT 34.301876 -111.371155 24,650 32 485 1600
2018-06-18 01:06:19 GMT 34.287277 -111.381409 24,475 32 483 1152
2018-06-18 01:06:16 GMT 34.281532 -111.385803 24,425 32 481 1344
2018-06-18 01:06:10 GMT 34.268280 -111.395927 24,225 32 480 2112
2018-06-18 01:06:05 GMT 34.262421 -111.401756 23,900 32 480 1792
2018-06-18 01:05:59 GMT 34.247688 -111.411781 23,900 32 480 1728
2018-06-18 01:05:56 GMT 34.244896 -111.414642 23,850 32 479 1728
2018-06-18 01:05:47 GMT 34.227585 -111.427711 23,575 32 478 2304
2018-06-18 01:05:43 GMT 34.221130 -111.433372 23,450 32 477 2752
2018-06-18 01:05:35 GMT 34.206024 -111.444862 23,100 32 479 2368
2018-06-18 01:05:32 GMT 34.200439 -111.449265 23,000 32 479 2048
2018-06-18 01:05:24 GMT 34.183685 -111.462181 22,800 32 477 1216
2018-06-18 01:05:20 GMT 34.177349 -111.466484 22,725 32 476 1472
2018-06-18 01:05:14 GMT 34.163864 -111.476532 22,525 32 473 1728
2018-06-18 01:05:10 GMT 34.158310 -111.480789 22,450 32 472 1600
2018-06-18 01:05:03 GMT 34.146698 -111.490715 22,275 32 471 1728
2018-06-18 01:05:00 GMT 34.138000 -111.496262 22,125 32 469 2112
2018-06-18 01:04:52 GMT 34.125351 -111.506081 21,900 32 468 2176
2018-06-18 01:04:47 GMT 34.115250 -111.514549 21,700 32 467 2112
2018-06-18 01:04:41 GMT 34.105179 -111.521545 21,525 32 466 1920
2018-06-18 01:04:35 GMT 34.092579 -111.531372 21,325 32 465 1792
2018-06-18 01:04:30 GMT 34.081779 -111.539780 21,150 32 463 2048
2018-06-18 01:04:26 GMT 34.074654 -111.545387 21,025 32 462 2112
2018-06-18 01:04:20 GMT 34.068371 -111.550880 20,900 32 461 2112
2018-06-18 01:04:14 GMT 34.055420 -111.560501 20,675 32 461 2048
2018-06-18 01:04:09 GMT 34.048462 -111.566109 20,550 33 460 2048
2018-06-18 01:04:06 GMT 34.041138 -111.571991 20,375 41 458 2240
2018-06-18 01:04:03 GMT 34.035877 -111.576515 20,325 35 459 1984
2018-06-18 01:03:59 GMT 34.028801 -111.582642 20,200 37 460 2048
2018-06-18 01:03:52 GMT 34.016647 -111.593681 19,950 39 459 2176
2018-06-18 01:03:48 GMT 34.010605 -111.600296 19,825 40 458 2240
2018-06-18 01:03:44 GMT 34.004780 -111.605354 19,575 41 458 2240
2018-06-18 01:03:39 GMT 33.998474 -111.612183 19,575 41 458 2240
2018-06-18 01:03:36 GMT 33.993652 -111.619148 19,450 43 458 2048
2018-06-18 01:03:32 GMT 33.986996 -111.626244 19,325 45 457 1920
2018-06-18 01:03:25 GMT 33.977142 -111.639084 19,125 47 456 1792
2018-06-18 01:03:21 GMT 33.970459 -111.646713 19,000 49 456 1920
2018-06-18 01:03:18 GMT 33.966419 -111.652565 18,900 50 455 2048
2018-06-18 01:03:15 GMT 33.960835 -111.660233 18,775 50 455 2048
2018-06-18 01:03:10 GMT 33.956272 -111.667953 18,675 50 453 1984
2018-06-18 01:03:07 GMT 33.951874 -111.673836 18,575 50 453 1984
2018-06-18 01:03:04 GMT 33.947067 -111.681740 18,450 50 452 2048
2018-06-18 01:02:57 GMT 33.936722 -111.695137 18,200 50 449 2240
2018-06-18 01:02:52 GMT 33.932346 -111.702972 18,075 50 449 2240
2018-06-18 01:02:45 GMT 33.917862 -111.724007 17,725 50 446 2176
2018-06-18 01:02:32 GMT 33.905346 -111.741142 17,400 50 443 2112
2018-06-18 01:01:52 GMT 33.853252 -111.816330 16,075 50 430 2112
2018-06-18 01:01:41 GMT 33.838123 -111.838364 15,675 50 428 2176
2018-06-18 01:01:29 GMT 33.814682 -111.872826 15,200 50 416 1536
2018-06-18 01:01:12 GMT 33.802883 -111.888657 14,975 50 410 1152
2018-06-18 01:01:09 GMT 33.799301 -111.893959 14,675 50 400 2496
2018-06-18 01:01:03 GMT 33.792068 -111.904381 14,825 50 403 1728

Making use of Plane Finder data

You are free to use the raw flight data, aircraft information and images provided in this report for your own purposes provided the data is correctly attributed to Plane Finder. We ask that you please credit Plane Finder and link to planefinder.net in close proximity to the content.

Optionally one of the following logos (no smaller then 150x24px) can be used and must link to planefinder.net

Embedding the Plane Finder map

You are welcome to embed the Plane Finder playback map on your website to offer visitors a more interactive experience. We suggest using the following HTML code:

<iframe src="//planefinder.net/data/report/BA290-G-BNLY-7700-squawk-2018-06-18/map" width="800" height="600" seamless="seamless"></iframe>

Where our data comes from

Plane Finder has a global network of data feeds and antenna radars that receive data broadcast directly from aircraft. The primary technologies used are ADS-B and MLAT. We also show feeds from the FAA and a FLARM glider feed.

Click here to find out more about the Plane Finder network.

How we collect our data